Time,TemperatureF,DewpointF,PressureIn,WindDirection,WindDirectionDegrees,WindSpeedMPH,WindSpeedGustMPH,Humidity,HourlyPrecipIn,Conditions,Clouds,dailyrainin,SoftwareType,DateUTC
2013-02-08 00:00:00,31.2,31.2,30.10,East,90,0.0,0.0,100,0.00,,,0.01,WeatherDisplay:10.37,2013-02-08 05:00:00,
2013-02-08 00:05:00,29.1,29.1,30.10,East,90,0.0,0.0,100,0.00,RA,,0.00,WeatherDisplay:10.37,2013-02-08 05:05:00,
2013-02-08 00:10:00,28.8,28.8,30.10,East,90,0.0,0.0,100,0.00,RA,,0.00,WeatherDisplay:10.37,2013-02-08 05:10:00,
2013-02-08 00:11:00,29.7,29.7,30.10,East,90,0.0,0.0,100,0.00,,,0.00,WeatherDisplay:10.37,2013-02-08 05:11:00,
2013-02-08 00:15:00,30.7,30.7,30.10,East,90,0.0,0.0,100,0.00,,,0.00,WeatherDisplay:10.37,2013-02-08 05:15:00,
2013-02-08 00:16:00,30.0,30.0,30.10,East,90,0.0,0.0,100,0.00,,,0.00,WeatherDisplay:10.37,2013-02-08 05:16:00,
2013-02-08 00:20:00,32.8,32.8,30.10,East,90,0.0,0.0,100,0.00,,,0.00,WeatherDisplay:10.37,2013-02-08 05:20:00,
2013-02-08 00:21:00,32.8,32.8,30.10,East,90,0.0,0.0,100,0.00,,,0.00,WeatherDisplay:10.37,2013-02-08 05:21:00,
2013-02-08 00:25:00,32.8,32.8,30.09,East,90,0.0,0.0,100,0.00,,,0.00,WeatherDisplay:10.37,2013-02-08 05:25:00,
2013-02-08 00:26:00,32.8,32.8,30.10,East,90,0.0,0.0,100,0.00,,,0.00,WeatherDisplay:10.37,2013-02-08 05:26:00,
2013-02-08 00:30:00,29.3,29.3,30.09,East,90,0.0,0.0,100,0.00,,,0.00,WeatherDisplay:10.37,2013-02-08 05:30:00,
2013-02-08 00:31:00,30.7,30.7,30.09,East,90,0.0,0.0,100,0.00,,,0.00,WeatherDisplay:10.37,2013-02-08 05:31:00,
2013-02-08 00:35:00,29.6,29.6,30.09,East,90,0.0,0.0,100,0.00,,,0.00,WeatherDisplay:10.37,2013-02-08 05:35:00,
2013-02-08 00:36:00,29.9,29.9,30.09,East,90,0.0,0.0,100,0.00,,,0.00,WeatherDisplay:10.37,2013-02-08 05:36:00,
2013-02-08 00:40:00,29.7,29.7,30.09,East,90,0.0,0.0,100,0.00,,,0.00,WeatherDisplay:10.37,2013-02-08 05:40:00,
2013-02-08 00:41:00,31.8,31.8,30.09,East,90,0.0,0.0,100,0.00,,,0.00,WeatherDisplay:10.37,2013-02-08 05:41:00,
2013-02-08 00:45:00,29.9,29.9,30.09,East,90,0.0,0.0,100,0.00,,,0.00,WeatherDisplay:10.37,2013-02-08 05:45:00,
2013-02-08 00:46:00,29.9,29.9,30.09,East,90,0.0,0.0,100,0.00,,,0.00,WeatherDisplay:10.37,2013-02-08 05:46:00,
2013-02-08 00:50:00,29.9,29.9,30.08,East,90,0.0,0.0,100,0.00,,,0.00,WeatherDisplay:10.37,2013-02-08 05:50:00,
2013-02-08 00:51:00,29.9,29.9,30.08,East,90,0.0,0.0,100,0.00,,,0.00,WeatherDisplay:10.37,2013-02-08 05:51:00,
2013-02-08 00:55:00,29.6,29.6,30.08,East,90,0.0,0.0,100,0.00,,,0.00,WeatherDisplay:10.37,2013-02-08 05:55:00,
2013-02-08 00:56:00,30.7,30.7,30.08,East,90,0.0,0.0,100,0.00,,,0.00,WeatherDisplay:10.37,2013-02-08 05:56:00,
2013-02-08 01:00:00,30.4,30.4,30.08,East,90,0.0,0.0,100,0.00,,,0.00,WeatherDisplay:10.37,2013-02-08 06:00:00,
2013-02-08 01:01:00,29.4,29.4,30.08,East,90,0.0,0.0,100,0.00,,,0.00,WeatherDisplay:10.37,2013-02-08 06:01:00,
2013-02-08 01:05:00,29.4,29.4,30.08,East,90,0.0,0.0,100,0.00,,,0.00,WeatherDisplay:10.37,2013-02-08 06:05:00,
2013-02-08 01:06:00,29.4,29.4,30.08,East,90,0.0,0.0,100,0.00,,,0.00,WeatherDisplay:10.37,2013-02-08 06:06:00,
2013-02-08 01:11:00,31.3,31.3,30.08,East,90,0.0,0.0,100,0.00,,,0.00,WeatherDisplay:10.37,2013-02-08 06:11:00,
2013-02-08 01:12:00,31.3,31.3,30.08,East,90,0.0,0.0,100,0.00,,,0.00,WeatherDisplay:10.37,2013-02-08 06:12:00,
2013-02-08 01:16:00,33.5,33.5,30.08,East,90,0.0,0.0,100,0.00,,,0.00,WeatherDisplay:10.37,2013-02-08 06:16:00,
2013-02-08 01:17:00,33.5,33.5,30.08,East,90,0.0,0.0,100,0.00,,,0.00,WeatherDisplay:10.37,2013-02-08 06:17:00,
2013-02-08 01:21:00,29.3,29.3,30.07,East,90,0.0,0.0,100,0.00,,,0.00,WeatherDisplay:10.37,2013-02-08 06:21:00,
2013-02-08 01:22:00,28.8,28.8,30.07,East,90,0.0,0.0,100,0.00,,,0.00,WeatherDisplay:10.37,2013-02-08 06:22:00,
2013-02-08 01:26:00,29.0,29.0,30.08,East,90,0.0,0.0,100,0.00,,,0.00,WeatherDisplay:10.37,2013-02-08 06:26:00,
2013-02-08 01:28:00,29.7,29.7,30.08,East,90,0.0,0.0,100,0.00,,,0.00,WeatherDisplay:10.37,2013-02-08 06:28:00,
2013-02-08 01:31:00,28.5,28.5,30.08,East,90,0.0,0.0,100,0.00,,,0.00,WeatherDisplay:10.37,2013-02-08 06:31:00,
2013-02-08 01:32:00,29.4,29.4,30.08,East,90,0.0,0.0,100,0.00,,,0.00,WeatherDisplay:10.37,2013-02-08 06:32:00,
2013-02-08 01:33:00,29.4,29.4,30.07,East,90,0.0,0.0,100,0.00,,,0.00,WeatherDisplay:10.37,2013-02-08 06:33:00,
2013-02-08 01:36:00,31.0,31.0,30.07,East,90,0.0,0.0,100,0.00,,,0.00,WeatherDisplay:10.37,2013-02-08 06:36:00,
2013-02-08 01:37:00,31.0,31.0,30.06,East,90,0.0,0.0,100,0.00,,,0.00,WeatherDisplay:10.37,2013-02-08 06:37:00,
2013-02-08 01:38:00,31.0,31.0,30.06,East,90,0.0,0.0,100,0.00,,,0.00,WeatherDisplay:10.37,2013-02-08 06:38:00,
2013-02-08 01:41:00,31.0,31.0,30.06,East,90,0.0,0.0,100,0.00,,,0.00,WeatherDisplay:10.37,2013-02-08 06:41:00,
2013-02-08 01:42:00,31.9,31.9,30.06,East,90,0.0,0.0,100,0.00,,,0.00,WeatherDisplay:10.37,2013-02-08 06:42:00,
2013-02-08 01:44:00,30.8,30.8,30.06,East,90,0.0,0.0,100,0.00,,,0.00,WeatherDisplay:10.37,2013-02-08 06:44:00,
2013-02-08 01:46:00,29.4,29.4,30.06,East,90,0.0,0.0,100,0.00,,,0.00,WeatherDisplay:10.37,2013-02-08 06:46:00,
2013-02-08 01:47:00,30.4,30.4,30.06,East,90,0.0,0.0,100,0.00,,,0.00,WeatherDisplay:10.37,2013-02-08 06:47:00,
2013-02-08 01:49:00,28.7,28.7,30.06,East,90,0.0,0.0,100,0.00,,,0.00,WeatherDisplay:10.37,2013-02-08 06:49:00,
2013-02-08 01:51:00,30.6,30.6,30.06,East,90,0.0,0.0,100,0.00,,,0.00,WeatherDisplay:10.37,2013-02-08 06:51:00,
2013-02-08 01:52:00,30.1,30.1,30.06,East,90,0.0,0.0,100,0.00,,,0.00,WeatherDisplay:10.37,2013-02-08 06:52:00,
2013-02-08 01:53:00,30.2,30.2,30.06,East,90,0.0,0.0,100,0.00,,,0.00,WeatherDisplay:10.37,2013-02-08 06:53:00,
2013-02-08 01:54:00,29.4,29.4,30.06,East,90,0.0,0.0,100,0.00,,,0.00,WeatherDisplay:10.37,2013-02-08 06:54:00,
2013-02-08 01:56:00,29.1,29.1,30.06,East,90,0.0,0.0,100,0.00,,,0.00,WeatherDisplay:10.37,2013-02-08 06:56:00,
2013-02-08 01:57:00,29.8,29.8,30.06,East,90,0.0,0.0,100,0.00,,,0.00,WeatherDisplay:10.37,2013-02-08 06:57:00,
2013-02-08 01:58:00,29.1,29.1,30.06,East,90,0.0,0.0,100,0.00,,,0.00,WeatherDisplay:10.37,2013-02-08 06:58:00,
2013-02-08 01:59:00,31.6,31.6,30.06,East,90,0.0,0.0,100,0.00,,,0.00,WeatherDisplay:10.37,2013-02-08 06:59:00,
2013-02-08 02:01:00,31.6,31.6,30.06,East,90,0.0,0.0,100,0.00,,,0.00,WeatherDisplay:10.37,2013-02-08 07:01:00,
2013-02-08 02:02:00,31.0,31.0,30.06,East,90,0.0,0.0,100,0.00,,,0.00,WeatherDisplay:10.37,2013-02-08 07:02:00,
2013-02-08 02:03:00,31.0,31.0,30.05,East,90,0.0,0.0,100,0.00,,,0.00,WeatherDisplay:10.37,2013-02-08 07:03:00,
2013-02-08 02:04:00,31.0,31.0,30.05,East,90,0.0,0.0,100,0.00,,,0.00,WeatherDisplay:10.37,2013-02-08 07:04:00,
2013-02-08 02:06:00,31.0,31.0,30.05,East,90,0.0,0.0,100,0.00,,,0.00,WeatherDisplay:10.37,2013-02-08 07:06:00,
2013-02-08 02:07:00,31.0,31.0,30.05,East,90,0.0,0.0,100,0.00,,,0.00,WeatherDisplay:10.37,2013-02-08 07:07:00,
2013-02-08 02:08:00,31.0,31.0,30.05,East,90,0.0,0.0,100,0.00,,,0.00,WeatherDisplay:10.37,2013-02-08 07:08:00,
2013-02-08 02:09:00,31.0,31.0,30.05,East,90,0.0,0.0,100,0.00,,,0.00,WeatherDisplay:10.37,2013-02-08 07:09:00,
2013-02-08 02:12:00,29.8,29.8,30.05,East,90,0.0,0.0,100,0.00,,,0.00,WeatherDisplay:10.37,2013-02-08 07:12:00,
2013-02-08 02:13:00,29.3,29.3,30.05,East,90,0.0,0.0,100,0.00,,,0.00,WeatherDisplay:10.37,2013-02-08 07:13:00,
2013-02-08 02:14:00,30.0,30.0,30.04,East,90,0.0,0.0,100,0.00,,,0.00,WeatherDisplay:10.37,2013-02-08 07:14:00,
2013-02-08 02:17:00,30.5,30.5,30.04,East,90,0.0,0.0,100,0.00,,,0.00,WeatherDisplay:10.37,2013-02-08 07:17:00,
2013-02-08 02:19:00,30.1,30.1,30.04,East,90,0.0,0.0,100,0.00,,,0.00,WeatherDisplay:10.37,2013-02-08 07:19:00,
2013-02-08 02:22:00,29.2,29.2,30.04,East,90,0.0,0.0,100,0.00,,,0.00,WeatherDisplay:10.37,2013-02-08 07:22:00,
2013-02-08 02:24:00,28.7,28.7,30.05,East,90,0.0,0.0,100,0.00,,,0.00,WeatherDisplay:10.37,2013-02-08 07:24:00,
2013-02-08 02:27:00,28.7,28.7,30.04,East,90,0.0,0.0,100,0.00,,,0.00,WeatherDisplay:10.37,2013-02-08 07:27:00,
2013-02-08 02:29:00,28.7,28.7,30.04,East,90,0.0,0.0,100,0.00,,,0.00,WeatherDisplay:10.37,2013-02-08 07:29:00,
2013-02-08 02:32:00,28.7,28.7,30.04,East,90,0.0,0.0,100,0.00,,,0.00,WeatherDisplay:10.37,2013-02-08 07:32:00,
2013-02-08 02:34:00,30.7,30.7,30.03,East,90,0.0,0.0,100,0.00,,,0.00,WeatherDisplay:10.37,2013-02-08 07:34:00,
2013-02-08 02:35:00,30.7,30.7,30.03,East,90,0.0,0.0,100,0.00,,,0.00,WeatherDisplay:10.37,2013-02-08 07:35:00,
2013-02-08 02:37:00,29.7,29.7,30.03,East,90,0.0,0.0,100,0.00,,,0.00,WeatherDisplay:10.37,2013-02-08 07:37:00,
2013-02-08 02:38:00,29.7,29.7,30.03,East,90,0.0,0.0,100,0.00,,,0.00,WeatherDisplay:10.37,2013-02-08 07:38:00,
2013-02-08 02:39:00,29.3,29.3,30.03,East,90,0.0,0.0,100,0.00,,,0.00,WeatherDisplay:10.37,2013-02-08 07:39:00,
2013-02-08 02:40:00,29.6,29.6,30.03,East,90,0.0,0.0,100,0.00,,,0.00,WeatherDisplay:10.37,2013-02-08 07:40:00,
2013-02-08 02:42:00,30.5,30.5,30.03,East,90,0.0,0.0,100,0.00,,,0.00,WeatherDisplay:10.37,2013-02-08 07:42:00,
2013-02-08 02:43:00,29.8,29.8,30.03,East,90,0.0,0.0,100,0.00,,,0.00,WeatherDisplay:10.37,2013-02-08 07:43:00,
2013-02-08 02:44:00,29.1,29.1,30.03,East,90,0.0,0.0,100,0.00,,,0.00,WeatherDisplay:10.37,2013-02-08 07:44:00,
2013-02-08 02:45:00,28.8,28.8,30.03,East,90,0.0,0.0,100,0.00,,,0.00,WeatherDisplay:10.37,2013-02-08 07:45:00,
2013-02-08 02:47:00,29.2,29.2,30.03,East,90,0.0,0.0,100,0.00,,,0.00,WeatherDisplay:10.37,2013-02-08 07:47:00,
2013-02-08 02:48:00,29.2,29.2,30.03,East,90,0.0,0.0,100,0.00,,,0.00,WeatherDisplay:10.37,2013-02-08 07:48:00,
2013-02-08 02:49:00,29.2,29.2,30.03,East,90,0.0,0.0,100,0.00,,,0.00,WeatherDisplay:10.37,2013-02-08 07:49:00,
2013-02-08 02:50:00,29.2,29.2,30.03,East,90,0.0,0.0,100,0.00,,,0.00,WeatherDisplay:10.37,2013-02-08 07:50:00,
2013-02-08 02:52:00,29.2,29.2,30.02,East,90,0.0,0.0,100,0.00,,,0.00,WeatherDisplay:10.37,2013-02-08 07:52:00,
2013-02-08 02:54:00,29.2,29.2,30.02,East,90,0.0,0.0,100,0.00,,,0.00,WeatherDisplay:10.37,2013-02-08 07:54:00,
2013-02-08 02:55:00,32.2,32.2,30.02,East,90,0.0,0.0,100,0.00,,,0.00,WeatherDisplay:10.37,2013-02-08 07:55:00,
2013-02-08 02:57:00,32.2,32.2,30.02,East,90,0.0,0.0,100,0.00,,,0.00,WeatherDisplay:10.37,2013-02-08 07:57:00,
2013-02-08 02:59:00,30.7,30.7,30.02,East,90,0.0,0.0,100,0.00,,,0.00,WeatherDisplay:10.37,2013-02-08 07:59:00,
2013-02-08 03:00:00,29.3,29.3,30.02,East,90,0.0,0.0,100,0.00,,,0.00,WeatherDisplay:10.37,2013-02-08 08:00:00,
2013-02-08 03:02:00,29.3,29.3,30.01,East,90,0.0,0.0,100,0.00,,,0.00,WeatherDisplay:10.37,2013-02-08 08:02:00,
2013-02-08 03:04:00,29.3,29.3,30.01,East,90,0.0,0.0,100,0.00,,,0.00,WeatherDisplay:10.37,2013-02-08 08:04:00,
2013-02-08 03:05:00,29.3,29.3,30.01,East,90,0.0,0.0,100,0.00,,,0.00,WeatherDisplay:10.37,2013-02-08 08:05:00,
2013-02-08 03:06:00,29.1,29.1,30.01,East,90,0.0,0.0,100,0.00,,,0.00,WeatherDisplay:10.37,2013-02-08 08:06:00,
2013-02-08 03:07:00,29.9,29.9,30.01,East,90,0.0,0.0,100,0.00,,,0.00,WeatherDisplay:10.37,2013-02-08 08:07:00,
2013-02-08 03:09:00,29.0,29.0,30.01,East,90,0.0,0.0,100,0.00,,,0.00,WeatherDisplay:10.37,2013-02-08 08:09:00,
2013-02-08 03:10:00,28.7,28.7,30.01,East,90,0.0,0.0,100,0.00,,,0.00,WeatherDisplay:10.37,2013-02-08 08:10:00,
2013-02-08 03:11:00,29.3,29.3,30.01,East,90,0.0,0.0,100,0.00,,,0.00,WeatherDisplay:10.37,2013-02-08 08:11:00,
2013-02-08 03:12:00,29.4,29.4,30.01,East,90,0.0,0.0,100,0.00,,,0.00,WeatherDisplay:10.37,2013-02-08 08:12:00,
2013-02-08 03:14:00,29.4,29.4,30.01,East,90,0.0,0.0,100,0.00,,,0.00,WeatherDisplay:10.37,2013-02-08 08:14:00,
2013-02-08 03:15:00,29.4,29.4,30.01,East,90,0.0,0.0,100,0.00,,,0.00,WeatherDisplay:10.37,2013-02-08 08:15:00,
2013-02-08 03:16:00,29.4,29.4,30.01,East,90,0.0,0.0,100,0.00,,,0.00,WeatherDisplay:10.37,2013-02-08 08:16:00,
2013-02-08 03:18:00,29.4,29.4,30.00,East,90,0.0,0.0,100,0.00,,,0.00,WeatherDisplay:10.37,2013-02-08 08:18:00,
2013-02-08 03:19:00,29.4,29.4,30.00,East,90,0.0,0.0,100,0.00,,,0.00,WeatherDisplay:10.37,2013-02-08 08:19:00,
2013-02-08 03:20:00,29.4,29.4,30.00,East,90,0.0,0.0,100,0.00,,,0.00,WeatherDisplay:10.37,2013-02-08 08:20:00,
2013-02-08 03:21:00,29.4,29.4,30.00,East,90,0.0,0.0,100,0.00,,,0.00,WeatherDisplay:10.37,2013-02-08 08:21:00,
2013-02-08 03:23:00,29.4,29.4,30.00,East,90,0.0,0.0,100,0.00,,,0.00,WeatherDisplay:10.37,2013-02-08 08:23:00,
2013-02-08 03:24:00,31.5,31.5,30.00,East,90,0.0,0.0,100,0.00,,,0.00,WeatherDisplay:10.37,2013-02-08 08:24:00,
2013-02-08 03:25:00,31.5,31.5,30.00,East,90,0.0,0.0,100,0.00,,,0.00,WeatherDisplay:10.37,2013-02-08 08:25:00,
2013-02-08 03:26:00,28.3,28.3,30.00,East,90,0.0,0.0,100,0.00,,,0.00,WeatherDisplay:10.37,2013-02-08 08:26:00,
2013-02-08 03:29:00,29.0,29.0,30.00,East,90,0.0,3.5,100,0.00,,,0.00,WeatherDisplay:10.37,2013-02-08 08:29:00,
2013-02-08 03:30:00,29.3,29.3,30.00,East,90,0.0,0.0,100,0.00,,,0.00,WeatherDisplay:10.37,2013-02-08 08:30:00,
2013-02-08 03:31:00,29.8,29.8,30.00,East,90,0.0,0.0,100,0.00,,,0.00,WeatherDisplay:10.37,2013-02-08 08:31:00,
2013-02-08 03:34:00,29.0,29.0,30.00,East,90,0.0,0.0,100,0.00,,,0.00,WeatherDisplay:10.37,2013-02-08 08:34:00,
2013-02-08 03:35:00,29.8,29.8,30.00,East,90,0.0,0.0,100,0.00,,,0.00,WeatherDisplay:10.37,2013-02-08 08:35:00,
2013-02-08 03:36:00,29.7,29.7,30.00,East,90,0.0,0.0,100,0.00,,,0.00,WeatherDisplay:10.37,2013-02-08 08:36:00,
2013-02-08 03:39:00,31.4,31.4,29.99,East,90,0.0,0.0,100,0.00,,,0.00,WeatherDisplay:10.37,2013-02-08 08:39:00,
2013-02-08 03:40:00,31.4,31.4,29.99,East,90,0.0,0.0,100,0.00,,,0.00,WeatherDisplay:10.37,2013-02-08 08:40:00,
2013-02-08 03:41:00,31.4,31.4,29.99,East,90,0.0,0.0,100,0.00,,,0.00,WeatherDisplay:10.37,2013-02-08 08:41:00,
2013-02-08 03:44:00,31.4,31.4,29.99,East,90,0.0,0.0,100,0.00,,,0.00,WeatherDisplay:10.37,2013-02-08 08:44:00,
2013-02-08 03:45:00,31.4,31.4,29.99,East,90,0.0,0.0,100,0.00,,,0.00,WeatherDisplay:10.37,2013-02-08 08:45:00,
2013-02-08 03:46:00,31.4,31.4,29.99,East,90,0.0,0.0,100,0.00,,,0.00,WeatherDisplay:10.37,2013-02-08 08:46:00,
2013-02-08 03:49:00,31.4,31.4,29.99,East,90,0.0,0.0,100,0.00,,,0.00,WeatherDisplay:10.37,2013-02-08 08:49:00,
2013-02-08 03:50:00,31.4,31.4,29.99,East,90,0.0,0.0,100,0.00,,,0.00,WeatherDisplay:10.37,2013-02-08 08:50:00,
2013-02-08 03:51:00,31.4,31.4,29.99,East,90,0.0,0.0,100,0.00,,,0.00,WeatherDisplay:10.37,2013-02-08 08:51:00,
2013-02-08 03:54:00,29.2,29.2,29.99,East,90,0.0,0.0,100,0.00,,,0.00,WeatherDisplay:10.37,2013-02-08 08:54:00,
2013-02-08 03:55:00,29.1,29.1,29.99,East,90,0.0,0.0,100,0.00,,,0.00,WeatherDisplay:10.37,2013-02-08 08:55:00,
2013-02-08 03:56:00,29.6,29.6,29.99,East,90,0.0,0.0,100,0.00,,,0.00,WeatherDisplay:10.37,2013-02-08 08:56:00,
2013-02-08 03:59:00,29.6,29.6,29.99,East,90,0.0,0.0,100,0.00,,,0.00,WeatherDisplay:10.37,2013-02-08 08:59:00,
2013-02-08 04:01:00,29.9,29.9,29.99,East,90,0.0,0.0,100,0.00,,,0.00,WeatherDisplay:10.37,2013-02-08 09:01:00,
2013-02-08 04:02:00,29.3,29.3,29.99,East,90,0.0,0.0,100,0.00,,,0.00,WeatherDisplay:10.37,2013-02-08 09:02:00,
2013-02-08 04:04:00,32.0,32.0,29.99,East,90,0.0,0.0,100,0.00,,,0.00,WeatherDisplay:10.37,2013-02-08 09:04:00,
2013-02-08 04:06:00,32.0,32.0,29.99,East,90,0.0,0.0,100,0.00,,,0.00,WeatherDisplay:10.37,2013-02-08 09:06:00,
2013-02-08 04:07:00,32.0,32.0,29.99,East,90,0.0,0.0,100,0.00,,,0.00,WeatherDisplay:10.37,2013-02-08 09:07:00,
2013-02-08 04:09:00,31.1,31.1,29.98,East,90,0.0,0.0,100,0.00,,,0.00,WeatherDisplay:10.37,2013-02-08 09:09:00,
2013-02-08 04:11:00,31.1,31.1,29.98,East,90,0.0,0.0,100,0.00,,,0.00,WeatherDisplay:10.37,2013-02-08 09:11:00,
2013-02-08 04:12:00,31.2,31.2,29.98,East,90,0.0,0.0,100,0.00,,,0.00,WeatherDisplay:10.37,2013-02-08 09:12:00,
2013-02-08 04:14:00,34.0,34.0,29.98,East,90,0.0,0.0,100,0.00,,,0.00,WeatherDisplay:10.37,2013-02-08 09:14:00,
2013-02-08 04:16:00,29.2,29.2,29.98,East,90,0.0,0.0,100,0.00,,,0.00,WeatherDisplay:10.37,2013-02-08 09:16:00,
2013-02-08 04:17:00,29.5,29.5,29.98,East,90,0.0,0.0,100,0.00,,,0.00,WeatherDisplay:10.37,2013-02-08 09:17:00,
2013-02-08 04:19:00,29.2,29.2,29.98,North,0,0.0,0.0,100,0.00,,,0.00,WeatherDisplay:10.37,2013-02-08 09:19:00,
2013-02-08 04:21:00,29.7,29.7,29.98,North,0,0.0,0.0,100,0.00,,,0.00,WeatherDisplay:10.37,2013-02-08 09:21:00,
2013-02-08 04:22:00,29.8,29.8,29.98,North,0,0.0,0.0,100,0.00,,,0.00,WeatherDisplay:10.37,2013-02-08 09:22:00,
2013-02-08 04:24:00,29.7,29.7,29.98,North,0,0.0,0.0,100,0.00,,,0.00,WeatherDisplay:10.37,2013-02-08 09:24:00,
2013-02-08 04:26:00,30.6,30.6,29.98,North,0,0.0,0.0,100,0.00,,,0.00,WeatherDisplay:10.37,2013-02-08 09:26:00,
2013-02-08 04:27:00,29.2,29.2,29.98,North,0,0.0,0.0,100,0.00,,,0.00,WeatherDisplay:10.37,2013-02-08 09:27:00,
2013-02-08 04:29:00,32.6,32.6,29.98,North,0,0.0,0.0,100,0.00,,,0.00,WeatherDisplay:10.37,2013-02-08 09:29:00,
2013-02-08 04:31:00,33.8,33.8,29.98,North,0,0.0,0.0,100,0.00,,,0.00,WeatherDisplay:10.37,2013-02-08 09:31:00,
2013-02-08 04:32:00,31.3,31.3,29.98,North,0,0.0,0.0,100,0.00,,,0.00,WeatherDisplay:10.37,2013-02-08 09:32:00,
2013-02-08 04:35:00,31.2,31.2,29.98,North,0,0.0,0.0,100,0.00,,,0.00,WeatherDisplay:10.37,2013-02-08 09:35:00,
2013-02-08 04:36:00,31.2,31.2,29.98,North,0,0.0,0.0,100,0.00,,,0.00,WeatherDisplay:10.37,2013-02-08 09:36:00,
2013-02-08 04:37:00,31.6,31.6,29.98,WNW,295,0.3,3.4,100,0.00,,,0.00,WeatherDisplay:10.37,2013-02-08 09:37:00,
2013-02-08 04:38:00,31.3,31.3,29.97,West,271,0.7,3.5,100,0.00,,,0.00,WeatherDisplay:10.37,2013-02-08 09:38:00,
2013-02-08 04:40:00,31.2,31.2,29.97,West,271,0.0,0.0,100,0.00,,,0.00,WeatherDisplay:10.37,2013-02-08 09:40:00,
2013-02-08 04:41:00,31.2,31.2,29.97,WNW,298,1.8,3.4,100,0.00,,,0.00,WeatherDisplay:10.37,2013-02-08 09:41:00,
2013-02-08 04:42:00,31.2,31.2,29.97,NNW,328,1.4,4.6,100,0.00,,,0.00,WeatherDisplay:10.37,2013-02-08 09:42:00,
2013-02-08 04:43:00,31.2,31.2,29.97,NNW,328,0.8,3.5,100,0.00,,,0.00,WeatherDisplay:10.37,2013-02-08 09:43:00,
2013-02-08 04:45:00,28.9,28.9,29.97,NNW,328,0.0,0.0,100,0.00,,,0.00,WeatherDisplay:10.37,2013-02-08 09:45:00,
2013-02-08 04:46:00,30.1,30.1,29.97,NNW,328,0.0,0.0,100,0.00,,,0.00,WeatherDisplay:10.37,2013-02-08 09:46:00,
2013-02-08 04:48:00,30.2,30.2,29.97,NNW,328,0.0,0.0,100,0.00,,,0.00,WeatherDisplay:10.37,2013-02-08 09:48:00,
2013-02-08 04:50:00,29.1,29.1,29.97,NW,323,1.9,4.6,100,0.00,,,0.00,WeatherDisplay:10.37,2013-02-08 09:50:00,
2013-02-08 04:52:00,29.3,29.3,29.97,NW,308,0.0,0.0,100,0.00,,,0.00,WeatherDisplay:10.37,2013-02-08 09:52:00,
2013-02-08 04:53:00,30.1,30.1,29.97,NW,308,0.0,0.0,100,0.00,,,0.00,WeatherDisplay:10.37,2013-02-08 09:53:00,
2013-02-08 04:55:00,29.9,29.9,29.97,NNW,335,0.3,4.2,100,0.00,,,0.00,WeatherDisplay:10.37,2013-02-08 09:55:00,
2013-02-08 04:57:00,32.6,32.6,29.97,NNW,336,0.8,6.9,100,0.00,,,0.00,WeatherDisplay:10.37,2013-02-08 09:57:00,
2013-02-08 04:58:00,32.6,32.6,29.97,NNW,337,2.9,6.7,100,0.00,,,0.00,WeatherDisplay:10.37,2013-02-08 09:58:00,
2013-02-08 05:00:00,33.2,33.2,29.97,NNW,340,0.8,4.2,100,0.00,,,0.00,WeatherDisplay:10.37,2013-02-08 10:00:00,
2013-02-08 05:02:00,31.2,31.2,29.97,NNW,336,0.0,3.5,100,0.00,,,0.00,WeatherDisplay:10.37,2013-02-08 10:02:00,
2013-02-08 05:03:00,31.2,31.2,29.97,NNW,346,0.5,3.1,100,0.00,,,0.00,WeatherDisplay:10.37,2013-02-08 10:03:00,
2013-02-08 05:05:00,31.2,31.2,29.97,NNW,346,2.7,5.8,100,0.00,,,0.00,WeatherDisplay:10.37,2013-02-08 10:05:00,
2013-02-08 05:07:00,31.2,31.2,29.97,NNW,328,0.0,4.6,100,0.00,,,0.00,WeatherDisplay:10.37,2013-02-08 10:07:00,
2013-02-08 05:08:00,31.2,31.2,29.97,NNW,328,0.0,0.0,100,0.00,,,0.00,WeatherDisplay:10.37,2013-02-08 10:08:00,
2013-02-08 05:10:00,30.3,30.3,29.96,NNW,328,0.0,0.0,100,0.00,,,0.00,WeatherDisplay:10.37,2013-02-08 10:10:00,
2013-02-08 05:13:00,30.2,30.2,29.96,NNW,328,0.0,0.0,100,0.00,,,0.00,WeatherDisplay:10.37,2013-02-08 10:13:00,
2013-02-08 05:15:00,30.8,30.8,29.96,NNW,328,0.0,0.0,100,0.00,,,0.00,WeatherDisplay:10.37,2013-02-08 10:15:00,
2013-02-08 05:18:00,30.7,30.7,29.96,NNW,333,0.2,2.3,100,0.00,,,0.00,WeatherDisplay:10.37,2013-02-08 10:18:00,
2013-02-08 05:19:00,29.9,29.9,29.96,NNW,340,0.1,6.2,100,0.00,,,0.00,WeatherDisplay:10.37,2013-02-08 10:19:00,
2013-02-08 05:20:00,30.9,30.9,29.96,North,359,0.7,6.9,100,0.00,,,0.00,WeatherDisplay:10.37,2013-02-08 10:20:00,
2013-02-08 05:23:00,29.7,29.7,29.96,North,359,0.0,0.0,100,0.00,,,0.00,WeatherDisplay:10.37,2013-02-08 10:23:00,
2013-02-08 05:24:00,29.7,29.7,29.96,North,359,0.4,3.5,100,0.00,,,0.00,WeatherDisplay:10.37,2013-02-08 10:24:00,
2013-02-08 05:26:00,30.2,30.2,29.96,WNW,284,3.0,5.8,100,0.00,,,0.00,WeatherDisplay:10.37,2013-02-08 10:26:00,
2013-02-08 05:28:00,33.3,33.3,29.96,NW,325,0.0,0.0,100,0.00,,,0.00,WeatherDisplay:10.37,2013-02-08 10:28:00,
2013-02-08 05:29:00,32.9,32.9,29.96,NW,325,0.0,0.0,100,0.00,,,0.00,WeatherDisplay:10.37,2013-02-08 10:29:00,
2013-02-08 05:31:00,33.5,33.5,29.96,NW,325,0.0,0.0,100,0.00,,,0.00,WeatherDisplay:10.37,2013-02-08 10:31:00,
2013-02-08 05:33:00,32.2,32.2,29.96,WNW,287,1.1,5.8,100,0.00,,,0.00,WeatherDisplay:10.37,2013-02-08 10:33:00,
2013-02-08 05:34:00,32.2,32.2,29.96,WNW,287,0.0,0.0,100,0.00,,,0.00,WeatherDisplay:10.37,2013-02-08 10:34:00,
2013-02-08 05:36:00,30.2,30.2,29.95,WNW,287,0.0,0.0,100,0.00,,,0.00,WeatherDisplay:10.37,2013-02-08 10:36:00,
2013-02-08 05:39:00,30.3,30.3,29.96,WNW,287,0.0,0.0,100,0.00,,,0.00,WeatherDisplay:10.37,2013-02-08 10:39:00,
2013-02-08 05:41:00,29.9,29.9,29.96,WNW,298,0.7,3.5,100,0.00,,,0.00,WeatherDisplay:10.37,2013-02-08 10:41:00,
2013-02-08 05:44:00,29.8,29.8,29.96,NW,325,0.0,0.0,100,0.00,,,0.00,WeatherDisplay:10.37,2013-02-08 10:44:00,
2013-02-08 05:45:00,30.4,30.4,29.96,NW,325,0.0,0.0,100,0.00,,,0.00,WeatherDisplay:10.37,2013-02-08 10:45:00,
2013-02-08 05:46:00,30.3,30.3,29.96,NW,325,0.0,0.0,100,0.00,,,0.00,WeatherDisplay:10.37,2013-02-08 10:46:00,
2013-02-08 05:49:00,31.8,31.8,29.96,NW,325,0.0,0.0,100,0.00,,,0.00,WeatherDisplay:10.37,2013-02-08 10:49:00,
2013-02-08 05:50:00,31.8,31.8,29.96,NW,325,0.0,0.0,100,0.00,,,0.00,WeatherDisplay:10.37,2013-02-08 10:50:00,
2013-02-08 05:51:00,31.8,31.8,29.96,NW,325,0.0,0.0,100,0.00,,,0.00,WeatherDisplay:10.37,2013-02-08 10:51:00,
2013-02-08 05:54:00,30.0,30.0,29.95,NW,325,0.0,0.0,100,0.00,,,0.00,WeatherDisplay:10.37,2013-02-08 10:54:00,
2013-02-08 05:55:00,30.0,30.0,29.95,NW,325,0.0,0.0,100,0.00,,,0.00,WeatherDisplay:10.37,2013-02-08 10:55:00,
2013-02-08 05:56:00,32.3,32.3,29.95,NW,325,0.0,0.0,100,0.00,,,0.00,WeatherDisplay:10.37,2013-02-08 10:56:00,
2013-02-08 05:59:00,30.2,30.2,29.95,NW,325,0.0,0.0,100,0.00,,,0.00,WeatherDisplay:10.37,2013-02-08 10:59:00,
2013-02-08 06:00:00,30.3,30.3,29.95,NW,325,0.4,3.5,100,0.00,,,0.00,WeatherDisplay:10.37,2013-02-08 11:00:00,
2013-02-08 06:02:00,31.2,31.2,29.95,NW,325,0.0,0.0,100,0.00,,,0.00,WeatherDisplay:10.37,2013-02-08 11:02:00,
2013-02-08 06:04:00,30.2,30.2,29.95,NNW,340,4.3,6.9,100,0.00,,,0.00,WeatherDisplay:10.37,2013-02-08 11:04:00,
2013-02-08 06:05:00,30.1,30.1,29.95,WNW,298,2.2,6.9,100,0.00,,,0.00,WeatherDisplay:10.37,2013-02-08 11:05:00,
2013-02-08 06:07:00,30.8,30.8,29.95,WNW,298,0.0,0.0,100,0.00,,,0.00,WeatherDisplay:10.37,2013-02-08 11:07:00,
2013-02-08 06:09:00,29.8,29.8,29.95,WNW,298,0.0,0.0,100,0.00,,,0.00,WeatherDisplay:10.37,2013-02-08 11:09:00,
2013-02-08 06:10:00,30.5,30.5,29.95,NNW,333,1.1,0.0,100,0.00,,,0.00,WeatherDisplay:10.37,2013-02-08 11:10:00,
2013-02-08 06:12:00,31.5,31.5,29.95,NNW,333,0.0,0.0,100,0.00,,,0.00,WeatherDisplay:10.37,2013-02-08 11:12:00,
2013-02-08 06:15:00,31.5,31.5,29.95,NNW,333,0.0,0.0,100,0.00,,,0.00,WeatherDisplay:10.37,2013-02-08 11:15:00,
2013-02-08 06:16:00,31.5,31.5,29.95,NNW,333,0.0,0.0,100,0.00,,,0.00,WeatherDisplay:10.37,2013-02-08 11:16:00,
2013-02-08 06:17:00,31.5,31.5,29.95,NNW,333,0.0,0.0,100,0.00,,,0.00,WeatherDisplay:10.37,2013-02-08 11:17:00,
2013-02-08 06:20:00,30.9,30.9,29.95,NNW,333,0.0,0.0,100,0.00,,,0.00,WeatherDisplay:10.37,2013-02-08 11:20:00,
2013-02-08 06:21:00,30.9,30.9,29.95,NNW,333,0.0,0.0,100,0.00,,,0.00,WeatherDisplay:10.37,2013-02-08 11:21:00,
2013-02-08 06:22:00,33.2,33.2,29.95,NNW,333,0.0,0.0,100,0.00,,,0.00,WeatherDisplay:10.37,2013-02-08 11:22:00,
2013-02-08 06:25:00,29.9,29.9,29.95,NNW,333,0.0,0.0,100,0.00,,,0.00,WeatherDisplay:10.37,2013-02-08 11:25:00,
2013-02-08 06:26:00,30.1,30.1,29.95,NNW,333,0.0,0.0,100,0.00,,,0.00,WeatherDisplay:10.37,2013-02-08 11:26:00,
2013-02-08 06:27:00,31.2,31.2,29.95,NNW,333,0.0,0.0,100,0.00,,,0.00,WeatherDisplay:10.37,2013-02-08 11:27:00,
2013-02-08 06:30:00,29.7,29.7,29.95,NNW,333,0.0,0.0,100,0.00,,,0.00,WeatherDisplay:10.37,2013-02-08 11:30:00,
2013-02-08 06:31:00,30.1,30.1,29.95,NNW,333,0.0,0.0,100,0.00,,,0.00,WeatherDisplay:10.37,2013-02-08 11:31:00,
2013-02-08 06:32:00,30.8,30.8,29.95,NNW,333,0.0,0.0,100,0.00,,,0.00,WeatherDisplay:10.37,2013-02-08 11:32:00,
2013-02-08 06:33:00,30.4,30.4,29.95,NNW,333,0.0,0.0,100,0.00,,,0.00,WeatherDisplay:10.37,2013-02-08 11:33:00,
2013-02-08 06:35:00,29.9,29.9,29.95,NNW,333,0.0,0.0,100,0.00,,,0.00,WeatherDisplay:10.37,2013-02-08 11:35:00,
2013-02-08 06:36:00,31.1,31.1,29.95,NNW,333,0.0,0.0,100,0.00,,,0.00,WeatherDisplay:10.37,2013-02-08 11:36:00,
2013-02-08 06:37:00,31.1,31.1,29.95,NNW,333,0.0,0.0,100,0.00,,,0.00,WeatherDisplay:10.37,2013-02-08 11:37:00,
2013-02-08 06:38:00,31.1,31.1,29.95,NNW,333,0.0,0.0,100,0.00,,,0.00,WeatherDisplay:10.37,2013-02-08 11:38:00,
2013-02-08 06:41:00,32.9,32.9,29.95,NNW,333,0.0,0.0,100,0.00,,,0.00,WeatherDisplay:10.37,2013-02-08 11:41:00,
2013-02-08 06:42:00,32.9,32.9,29.94,NNW,333,0.0,0.0,100,0.00,,,0.00,WeatherDisplay:10.37,2013-02-08 11:42:00,
2013-02-08 06:43:00,32.9,32.9,29.94,NNW,333,0.0,0.0,100,0.00,,,0.00,WeatherDisplay:10.37,2013-02-08 11:43:00,
2013-02-08 06:46:00,32.9,32.9,29.94,NNW,333,0.0,0.0,100,0.00,,,0.00,WeatherDisplay:10.37,2013-02-08 11:46:00,
2013-02-08 06:47:00,32.9,32.9,29.94,NNW,333,0.0,0.0,100,0.00,,,0.00,WeatherDisplay:10.37,2013-02-08 11:47:00,
2013-02-08 06:48:00,31.7,31.7,29.94,NNW,333,0.0,0.0,100,0.00,,,0.00,WeatherDisplay:10.37,2013-02-08 11:48:00,
2013-02-08 06:51:00,29.5,29.5,29.94,NNW,333,0.0,0.0,100,0.00,,,0.00,WeatherDisplay:10.37,2013-02-08 11:51:00,
2013-02-08 06:52:00,31.1,31.1,29.94,NNW,333,0.0,0.0,100,0.00,,,0.00,WeatherDisplay:10.37,2013-02-08 11:52:00,
2013-02-08 06:53:00,31.4,31.4,29.94,NNW,333,0.0,0.0,100,0.00,,,0.00,WeatherDisplay:10.37,2013-02-08 11:53:00,
2013-02-08 06:56:00,30.6,30.6,29.94,WNW,299,0.0,3.5,100,0.00,,,0.00,WeatherDisplay:10.37,2013-02-08 11:56:00,
2013-02-08 06:57:00,31.1,31.1,29.94,WNW,284,0.3,3.5,100,0.00,,,0.00,WeatherDisplay:10.37,2013-02-08 11:57:00,
2013-02-08 06:58:00,30.4,30.4,29.94,WNW,284,0.0,0.0,100,0.00,,,0.00,WeatherDisplay:10.37,2013-02-08 11:58:00,
2013-02-08 07:01:00,30.2,30.2,29.94,WNW,284,0.0,0.0,100,0.00,,,0.00,WeatherDisplay:10.37,2013-02-08 12:01:00,
2013-02-08 07:02:00,32.1,32.1,29.94,WNW,284,0.0,0.0,100,0.00,,,0.00,WeatherDisplay:10.37,2013-02-08 12:02:00,
2013-02-08 07:03:00,32.1,32.1,29.94,WNW,284,0.0,0.0,100,0.00,,,0.00,WeatherDisplay:10.37,2013-02-08 12:03:00,
2013-02-08 07:06:00,32.1,32.1,29.94,WNW,284,0.0,0.0,100,0.00,,,0.00,WeatherDisplay:10.37,2013-02-08 12:06:00,
2013-02-08 07:07:00,33.0,33.0,29.94,WNW,284,0.0,0.0,100,0.00,,,0.00,WeatherDisplay:10.37,2013-02-08 12:07:00,
2013-02-08 07:08:00,33.0,33.0,29.94,WNW,284,0.0,0.0,100,0.00,,,0.00,WeatherDisplay:10.37,2013-02-08 12:08:00,
2013-02-08 07:11:00,33.4,33.4,29.94,WNW,284,0.0,0.0,100,0.00,,,0.00,WeatherDisplay:10.37,2013-02-08 12:11:00,
2013-02-08 07:12:00,32.9,32.9,29.94,WNW,284,0.0,0.0,100,0.00,,,0.00,WeatherDisplay:10.37,2013-02-08 12:12:00,
2013-02-08 07:13:00,32.9,32.9,29.94,WNW,284,0.0,0.0,100,0.00,,,0.00,WeatherDisplay:10.37,2013-02-08 12:13:00,
2013-02-08 07:16:00,29.6,29.6,29.94,WNW,284,0.0,0.0,100,0.00,,,0.00,WeatherDisplay:10.37,2013-02-08 12:16:00,
2013-02-08 07:17:00,30.4,30.4,29.94,WNW,284,0.0,0.0,100,0.00,,,0.00,WeatherDisplay:10.37,2013-02-08 12:17:00,
2013-02-08 07:18:00,30.8,30.8,29.94,WNW,284,0.0,0.0,100,0.00,,,0.00,WeatherDisplay:10.37,2013-02-08 12:18:00,
2013-02-08 07:21:00,30.8,30.8,29.94,WNW,284,0.0,0.0,100,0.00,,,0.00,WeatherDisplay:10.37,2013-02-08 12:21:00,
2013-02-08 07:23:00,31.1,31.1,29.94,WNW,284,0.0,0.0,100,0.00,,,0.00,WeatherDisplay:10.37,2013-02-08 12:23:00,
2013-02-08 07:24:00,30.0,30.0,29.94,WNW,284,0.0,0.0,100,0.00,,,0.00,WeatherDisplay:10.37,2013-02-08 12:24:00,
2013-02-08 07:26:00,31.1,31.1,29.94,WNW,284,0.0,0.0,100,0.00,,,0.00,WeatherDisplay:10.37,2013-02-08 12:26:00,
2013-02-08 07:28:00,29.4,29.4,29.94,NNE,13,0.0,0.0,100,0.00,,,0.00,WeatherDisplay:10.37,2013-02-08 12:28:00,
2013-02-08 07:29:00,30.5,30.5,29.95,NNE,13,0.0,0.0,100,0.00,,,0.00,WeatherDisplay:10.37,2013-02-08 12:29:00,
2013-02-08 07:31:00,30.5,30.5,29.94,NNE,13,0.0,0.0,100,0.00,,,0.00,WeatherDisplay:10.37,2013-02-08 12:31:00,
2013-02-08 07:33:00,30.5,30.5,29.94,NNE,13,0.0,0.0,100,0.00,,,0.00,WeatherDisplay:10.37,2013-02-08 12:33:00,
2013-02-08 07:34:00,31.6,31.6,29.94,NNE,13,0.0,0.0,100,0.00,,,0.00,WeatherDisplay:10.37,2013-02-08 12:34:00,
2013-02-08 07:37:00,32.5,32.5,29.94,NNE,13,0.0,0.0,100,0.01,RA,,0.01,WeatherDisplay:10.37,2013-02-08 12:37:00,
2013-02-08 07:38:00,32.5,32.5,29.94,NNE,13,0.0,0.0,100,0.01,RA,,0.01,WeatherDisplay:10.37,2013-02-08 12:38:00,
2013-02-08 07:39:00,32.5,32.5,29.94,NNE,13,0.0,0.0,100,0.01,RA,,0.01,WeatherDisplay:10.37,2013-02-08 12:39:00,
2013-02-08 07:42:00,30.4,30.4,29.94,NNE,13,0.0,0.0,100,0.01,RA,,0.01,WeatherDisplay:10.37,2013-02-08 12:42:00,
2013-02-08 07:43:00,30.9,30.9,29.94,NNE,13,0.0,0.0,100,0.01,RA,,0.01,WeatherDisplay:10.37,2013-02-08 12:43:00,
2013-02-08 07:45:00,29.7,29.7,29.94,NNE,13,0.0,0.0,100,0.01,RA,,0.01,WeatherDisplay:10.37,2013-02-08 12:45:00,
2013-02-08 07:47:00,30.7,30.7,29.94,NNE,13,0.0,0.0,100,0.01,,,0.01,WeatherDisplay:10.37,2013-02-08 12:47:00,
2013-02-08 07:48:00,30.9,30.9,29.94,NNE,13,0.0,0.0,100,0.01,,,0.01,WeatherDisplay:10.37,2013-02-08 12:48:00,
2013-02-08 07:50:00,30.3,30.3,29.94,NNE,13,0.0,0.0,100,0.01,CLR,,0.01,WeatherDisplay:10.37,2013-02-08 12:50:00,
2013-02-08 07:52:00,30.5,30.5,29.94,NNE,13,0.0,0.0,100,0.01,CLR,,0.01,WeatherDisplay:10.37,2013-02-08 12:52:00,
2013-02-08 07:53:00,30.3,30.3,29.94,NNE,13,0.0,0.0,100,0.01,CLR,,0.01,WeatherDisplay:10.37,2013-02-08 12:53:00,
2013-02-08 07:55:00,30.6,30.6,29.94,NNE,13,0.0,0.0,100,0.01,,,0.01,WeatherDisplay:10.37,2013-02-08 12:55:00,
2013-02-08 07:57:00,33.3,33.3,29.94,NNE,13,0.0,0.0,100,0.01,CLR,,0.01,WeatherDisplay:10.37,2013-02-08 12:57:00,
2013-02-08 07:58:00,33.3,33.3,29.94,NNE,13,0.0,0.0,100,0.01,CLR,,0.01,WeatherDisplay:10.37,2013-02-08 12:58:00,
2013-02-08 08:00:00,33.7,33.7,29.94,NNE,13,0.0,0.0,100,0.01,CLR,,0.01,WeatherDisplay:10.37,2013-02-08 13:00:00,
2013-02-08 08:03:00,32.5,32.5,29.94,NNE,13,0.0,0.0,100,0.01,CLR,,0.01,WeatherDisplay:10.37,2013-02-08 13:03:00,
2013-02-08 08:04:00,32.5,32.5,29.94,NNE,13,0.0,0.0,100,0.01,CLR,,0.01,WeatherDisplay:10.37,2013-02-08 13:04:00,
2013-02-08 08:05:00,32.0,32.0,29.94,NNE,13,0.0,0.0,100,0.01,CLR,,0.01,WeatherDisplay:10.37,2013-02-08 13:05:00,
2013-02-08 08:08:00,31.3,31.3,29.94,NNE,13,0.0,0.0,100,0.01,,,0.01,WeatherDisplay:10.37,2013-02-08 13:08:00,
2013-02-08 08:09:00,30.9,30.9,29.94,NNE,13,0.0,0.0,100,0.01,,,0.01,WeatherDisplay:10.37,2013-02-08 13:09:00,
2013-02-08 08:10:00,31.3,31.3,29.94,NNE,13,0.0,0.0,100,0.01,,,0.01,WeatherDisplay:10.37,2013-02-08 13:10:00,
2013-02-08 08:13:00,31.2,31.2,29.94,NNE,13,0.0,0.0,100,0.01,,,0.01,WeatherDisplay:10.37,2013-02-08 13:13:00,
2013-02-08 08:14:00,31.0,31.0,29.94,NNE,13,0.0,0.0,100,0.01,,,0.01,WeatherDisplay:10.37,2013-02-08 13:14:00,
2013-02-08 08:15:00,30.6,30.6,29.94,NNE,13,0.0,0.0,100,0.01,,,0.01,WeatherDisplay:10.37,2013-02-08 13:15:00,
2013-02-08 08:18:00,30.3,30.3,29.94,NNE,13,0.0,0.0,100,0.01,CLR,,0.01,WeatherDisplay:10.37,2013-02-08 13:18:00,
2013-02-08 08:19:00,31.1,31.1,29.94,NNE,13,0.0,0.0,100,0.01,CLR,,0.01,WeatherDisplay:10.37,2013-02-08 13:19:00,
2013-02-08 08:20:00,31.3,31.3,29.94,NNE,13,0.0,0.0,100,0.01,CLR,,0.01,WeatherDisplay:10.37,2013-02-08 13:20:00,
2013-02-08 08:23:00,31.8,31.8,29.94,NNE,13,0.0,0.0,100,0.01,CLR,,0.01,WeatherDisplay:10.37,2013-02-08 13:23:00,
2013-02-08 08:24:00,31.8,31.8,29.94,NNE,13,0.0,0.0,100,0.01,CLR,,0.01,WeatherDisplay:10.37,2013-02-08 13:24:00,
2013-02-08 08:25:00,31.8,31.8,29.94,NNE,13,0.0,0.0,100,0.01,CLR,,0.01,WeatherDisplay:10.37,2013-02-08 13:25:00,
2013-02-08 08:28:00,31.8,31.8,29.93,NNE,13,0.0,0.0,100,0.01,CLR,,0.01,WeatherDisplay:10.37,2013-02-08 13:28:00,
2013-02-08 08:29:00,31.8,31.8,29.93,NNE,13,0.0,0.0,100,0.01,CLR,,0.01,WeatherDisplay:10.37,2013-02-08 13:29:00,
2013-02-08 08:30:00,31.8,31.8,29.93,WNW,298,0.4,5.7,100,0.01,CLR,,0.01,WeatherDisplay:10.37,2013-02-08 13:30:00,
2013-02-08 08:33:00,32.5,32.5,29.93,West,263,0.0,0.0,100,0.01,CLR,,0.01,WeatherDisplay:10.37,2013-02-08 13:33:00,
2013-02-08 08:34:00,32.5,32.5,29.93,West,263,0.0,0.0,100,0.01,CLR,,0.01,WeatherDisplay:10.37,2013-02-08 13:34:00,
2013-02-08 08:35:00,33.8,33.8,29.93,West,263,0.0,0.0,100,0.01,CLR,,0.01,WeatherDisplay:10.37,2013-02-08 13:35:00,
2013-02-08 08:36:00,32.5,32.5,29.93,West,263,0.0,0.0,100,0.01,CLR,,0.01,WeatherDisplay:10.37,2013-02-08 13:36:00,
2013-02-08 08:38:00,31.2,31.2,29.93,WNW,301,4.8,6.9,100,0.00,,,0.01,WeatherDisplay:10.37,2013-02-08 13:38:00,
2013-02-08 08:39:00,30.3,30.3,29.94,WNW,295,4.4,6.9,100,0.00,,,0.01,WeatherDisplay:10.37,2013-02-08 13:39:00,
2013-02-08 08:40:00,31.2,31.2,29.93,NW,308,4.0,6.9,100,0.00,,,0.01,WeatherDisplay:10.37,2013-02-08 13:40:00,
2013-02-08 08:41:00,31.5,31.5,29.94,WNW,296,4.9,6.9,100,0.00,,,0.01,WeatherDisplay:10.37,2013-02-08 13:41:00,
2013-02-08 08:43:00,30.8,30.8,29.93,NW,316,0.4,6.9,100,0.00,,,0.01,WeatherDisplay:10.37,2013-02-08 13:43:00,
2013-02-08 08:44:00,31.6,31.6,29.93,NW,311,2.2,6.9,100,0.00,,,0.01,WeatherDisplay:10.37,2013-02-08 13:44:00,
2013-02-08 08:45:00,30.7,30.7,29.93,WNW,294,2.1,6.3,100,0.00,,,0.01,WeatherDisplay:10.37,2013-02-08 13:45:00,
2013-02-08 08:46:00,31.0,31.0,29.93,NW,312,4.6,6.9,100,0.00,,,0.01,WeatherDisplay:10.37,2013-02-08 13:46:00,
2013-02-08 08:49:00,31.8,31.8,29.93,WNW,282,2.6,4.6,100,0.00,,,0.01,WeatherDisplay:10.37,2013-02-08 13:49:00,
2013-02-08 08:50:00,31.8,31.8,29.93,NW,305,2.9,4.6,100,0.00,,,0.01,WeatherDisplay:10.37,2013-02-08 13:50:00,
2013-02-08 08:52:00,31.8,31.8,29.93,NW,319,1.4,8.1,100,0.00,,,0.01,WeatherDisplay:10.37,2013-02-08 13:52:00,
2013-02-08 08:54:00,33.8,33.8,29.93,NW,305,2.2,7.9,100,0.00,,,0.01,WeatherDisplay:10.37,2013-02-08 13:54:00,
2013-02-08 08:55:00,33.8,33.8,29.93,NNW,347,7.6,10.4,100,0.00,,,0.01,WeatherDisplay:10.37,2013-02-08 13:55:00,
2013-02-08 08:56:00,32.9,32.9,29.93,NNW,328,5.4,8.1,100,0.00,,,0.01,WeatherDisplay:10.37,2013-02-08 13:56:00,
2013-02-08 08:57:00,34.2,34.2,29.93,NW,323,4.8,8.1,100,0.00,,,0.01,WeatherDisplay:10.37,2013-02-08 13:57:00,
2013-02-08 08:59:00,33.3,33.3,29.93,WNW,295,5.3,6.9,100,0.00,,,0.01,WeatherDisplay:10.37,2013-02-08 13:59:00,
2013-02-08 09:00:00,32.3,32.3,29.93,NW,308,5.9,6.9,100,0.00,,,0.01,WeatherDisplay:10.37,2013-02-08 14:00:00,
2013-02-08 09:01:00,32.8,32.8,29.93,NNW,328,7.0,8.1,100,0.00,,,0.01,WeatherDisplay:10.37,2013-02-08 14:01:00,
2013-02-08 09:02:00,32.0,32.0,29.93,NNW,340,6.8,9.2,100,0.00,,,0.01,WeatherDisplay:10.37,2013-02-08 14:02:00,
2013-02-08 09:04:00,32.6,32.6,29.93,NNW,330,3.7,10.4,100,0.00,,,0.01,WeatherDisplay:10.37,2013-02-08 14:04:00,
2013-02-08 09:05:00,33.1,33.1,29.93,WNW,291,4.7,8.1,100,0.00,,,0.01,WeatherDisplay:10.37,2013-02-08 14:05:00,
2013-02-08 09:06:00,33.2,33.2,29.93,WNW,291,0.0,5.8,100,0.00,,,0.02,WeatherDisplay:10.37,2013-02-08 14:06:00,
2013-02-08 09:07:00,32.7,32.7,29.93,WNW,291,0.0,0.0,100,0.01,RA,,0.02,WeatherDisplay:10.37,2013-02-08 14:07:00,
2013-02-08 09:09:00,32.9,32.9,29.93,NW,313,3.9,8.1,100,0.01,RA,,0.02,WeatherDisplay:10.37,2013-02-08 14:09:00,
2013-02-08 09:10:00,32.8,32.8,29.93,WNW,292,4.6,6.9,100,0.01,RA,,0.02,WeatherDisplay:10.37,2013-02-08 14:10:00,
2013-02-08 09:12:00,33.4,33.4,29.93,NW,313,5.3,8.1,100,0.01,RA,,0.02,WeatherDisplay:10.37,2013-02-08 14:12:00,
2013-02-08 09:14:00,32.9,32.9,29.93,NW,320,3.5,5.8,100,0.01,RA,,0.02,WeatherDisplay:10.37,2013-02-08 14:14:00,
2013-02-08 09:16:00,34.5,34.5,29.93,NW,320,0.0,0.0,100,0.01,RA,,0.02,WeatherDisplay:10.37,2013-02-08 14:16:00,
2013-02-08 09:17:00,33.2,33.2,29.93,NW,319,1.6,6.9,100,0.01,,,0.02,WeatherDisplay:10.37,2013-02-08 14:17:00,
2013-02-08 09:18:00,33.0,33.0,29.93,WNW,299,2.7,5.8,100,0.01,,,0.02,WeatherDisplay:10.37,2013-02-08 14:18:00,
2013-02-08 09:19:00,33.2,33.2,29.92,NW,304,4.1,8.1,100,0.02,RA,,0.03,WeatherDisplay:10.37,2013-02-08 14:19:00,
2013-02-08 09:21:00,33.0,33.0,29.92,NW,306,0.7,3.5,100,0.02,RA,,0.03,WeatherDisplay:10.37,2013-02-08 14:21:00,
2013-02-08 09:22:00,34.4,34.4,29.92,WNW,302,2.7,6.0,100,0.02,RA,,0.03,WeatherDisplay:10.37,2013-02-08 14:22:00,
2013-02-08 09:23:00,33.4,33.4,29.92,NW,316,4.8,6.9,100,0.02,RA,,0.03,WeatherDisplay:10.37,2013-02-08 14:23:00,
2013-02-08 09:24:00,33.1,33.1,29.92,NNW,336,3.5,6.9,100,0.02,RA,,0.03,WeatherDisplay:10.37,2013-02-08 14:24:00,
2013-02-08 09:26:00,34.2,34.2,29.92,NW,322,1.5,4.6,100,0.03,RA,,0.04,WeatherDisplay:10.37,2013-02-08 14:26:00,
2013-02-08 09:27:00,33.6,33.3,29.92,NW,322,2.8,4.8,99,0.03,RA,,0.04,WeatherDisplay:10.37,2013-02-08 14:27:00,
2013-02-08 09:28:00,33.6,33.6,29.92,WNW,291,3.6,6.9,100,0.03,RA,,0.04,WeatherDisplay:10.37,2013-02-08 14:28:00,
2013-02-08 09:29:00,34.6,34.6,29.93,WNW,291,4.2,4.2,100,0.03,RA,,0.04,WeatherDisplay:10.37,2013-02-08 14:29:00,
2013-02-08 09:31:00,35.0,34.7,29.93,NW,315,5.3,9.2,99,0.04,RA,,0.05,WeatherDisplay:10.37,2013-02-08 14:31:00,
2013-02-08 09:32:00,34.4,34.4,29.92,WNW,299,2.2,6.9,100,0.04,RA,,0.05,WeatherDisplay:10.37,2013-02-08 14:32:00,
2013-02-08 09:33:00,34.3,34.0,29.92,NW,323,3.5,5.8,99,0.04,RA,,0.05,WeatherDisplay:10.37,2013-02-08 14:33:00,
2013-02-08 09:34:00,35.2,34.9,29.92,NW,322,3.3,6.9,99,0.04,RA,,0.05,WeatherDisplay:10.37,2013-02-08 14:34:00,
2013-02-08 09:36:00,34.9,34.6,29.92,WNW,302,5.0,9.2,99,0.04,RA,,0.06,WeatherDisplay:10.37,2013-02-08 14:36:00,
2013-02-08 09:37:00,35.4,34.9,29.92,NW,312,5.0,8.1,98,0.05,RA,,0.06,WeatherDisplay:10.37,2013-02-08 14:37:00,
2013-02-08 09:38:00,34.6,34.1,29.92,West,275,5.3,8.1,98,0.05,RA,,0.06,WeatherDisplay:10.37,2013-02-08 14:38:00,
2013-02-08 09:39:00,35.2,34.7,29.92,WNW,288,4.2,5.8,98,0.05,RA,,0.06,WeatherDisplay:10.37,2013-02-08 14:39:00,
2013-02-08 09:41:00,35.1,34.1,29.92,WNW,301,5.4,10.4,96,0.05,RA,,0.06,WeatherDisplay:10.37,2013-02-08 14:41:00,
2013-02-08 09:43:00,34.9,33.6,29.91,NW,305,5.7,9.2,95,0.06,RA,,0.07,WeatherDisplay:10.37,2013-02-08 14:43:00,
2013-02-08 09:45:00,35.6,34.6,29.91,WNW,295,5.8,8.1,96,0.06,RA,,0.07,WeatherDisplay:10.37,2013-02-08 14:45:00,
2013-02-08 09:46:00,35.1,33.8,29.91,West,275,6.4,10.6,95,0.06,RA,,0.07,WeatherDisplay:10.37,2013-02-08 14:46:00,
2013-02-08 09:48:00,35.4,34.1,29.91,West,275,5.2,11.5,95,0.07,RA,,0.08,WeatherDisplay:10.37,2013-02-08 14:48:00,
2013-02-08 09:50:00,36.0,34.4,29.91,NW,325,6.6,10.4,94,0.07,RA,,0.08,WeatherDisplay:10.37,2013-02-08 14:50:00,
2013-02-08 09:52:00,36.3,34.5,29.91,WNW,301,7.6,9.9,93,0.08,RA,,0.09,WeatherDisplay:10.37,2013-02-08 14:52:00,
2013-02-08 09:53:00,36.3,34.5,29.91,NW,306,6.5,11.5,93,0.08,RA,,0.09,WeatherDisplay:10.37,2013-02-08 14:53:00,
2013-02-08 09:54:00,35.4,33.6,29.91,NW,305,6.8,9.2,93,0.08,RA,,0.09,WeatherDisplay:10.37,2013-02-08 14:54:00,
2013-02-08 09:55:00,35.7,33.6,29.91,WNW,296,7.4,9.4,92,0.08,RA,,0.10,WeatherDisplay:10.37,2013-02-08 14:55:00,
2013-02-08 09:57:00,35.5,33.4,29.91,WNW,299,10.6,13.8,92,0.09,RA,,0.10,WeatherDisplay:10.37,2013-02-08 14:57:00,
2013-02-08 09:59:00,35.6,33.5,29.91,NNW,347,7.0,10.4,92,0.09,RA,,0.10,WeatherDisplay:10.37,2013-02-08 14:59:00,
2013-02-08 10:00:00,35.9,34.1,29.91,NW,325,5.6,9.2,93,0.09,RA,,0.11,WeatherDisplay:10.37,2013-02-08 15:00:00,
2013-02-08 10:02:00,36.2,34.1,29.91,NW,319,5.7,9.2,92,0.10,RA,,0.11,WeatherDisplay:10.37,2013-02-08 15:02:00,
2013-02-08 10:04:00,36.2,34.1,29.91,WNW,301,5.2,7.9,92,0.10,RA,,0.11,WeatherDisplay:10.37,2013-02-08 15:04:00,
2013-02-08 10:05:00,36.6,34.5,29.91,WNW,291,4.9,12.7,92,0.11,RA,,0.12,WeatherDisplay:10.37,2013-02-08 15:05:00,
2013-02-08 10:07:00,36.6,34.2,29.91,NNW,333,7.1,10.4,91,0.10,RA,,0.12,WeatherDisplay:10.37,2013-02-08 15:07:00,
2013-02-08 10:09:00,36.3,33.6,29.91,NW,322,6.6,10.4,90,0.11,RA,,0.13,WeatherDisplay:10.37,2013-02-08 15:09:00,
2013-02-08 10:10:00,36.7,34.0,29.91,NW,313,7.9,9.2,90,0.11,RA,,0.13,WeatherDisplay:10.37,2013-02-08 15:10:00,
2013-02-08 10:12:00,36.3,33.6,29.91,NW,309,7.2,10.4,90,0.11,RA,,0.14,WeatherDisplay:10.37,2013-02-08 15:12:00,
2013-02-08 10:14:00,36.8,34.1,29.91,WNW,299,4.6,9.2,90,0.12,RA,,0.14,WeatherDisplay:10.37,2013-02-08 15:14:00,
2013-02-08 10:15:00,36.3,33.6,29.91,WNW,292,5.1,8.9,90,0.12,RA,,0.15,WeatherDisplay:10.37,2013-02-08 15:15:00,
2013-02-08 10:17:00,36.3,33.6,29.91,WNW,301,6.0,8.1,90,0.13,RA,,0.15,WeatherDisplay:10.37,2013-02-08 15:17:00,
2013-02-08 10:19:00,37.0,34.3,29.91,WNW,287,3.4,6.9,90,0.13,RA,,0.16,WeatherDisplay:10.37,2013-02-08 15:19:00,
2013-02-08 10:20:00,36.8,34.1,29.91,WNW,288,3.9,9.8,90,0.13,RA,,0.16,WeatherDisplay:10.37,2013-02-08 15:20:00,
2013-02-08 10:22:00,36.9,33.7,29.91,WNW,299,8.2,10.4,88,0.13,RA,,0.17,WeatherDisplay:10.37,2013-02-08 15:22:00,
2013-02-08 10:24:00,37.1,34.2,29.91,NW,320,7.4,10.4,89,0.13,RA,,0.17,WeatherDisplay:10.37,2013-02-08 15:24:00,
2013-02-08 10:25:00,37.0,33.8,29.91,NW,313,6.5,10.4,88,0.13,RA,,0.17,WeatherDisplay:10.37,2013-02-08 15:25:00,
2013-02-08 10:27:00,37.4,34.2,29.91,WNW,301,3.3,9.2,88,0.14,RA,,0.18,WeatherDisplay:10.37,2013-02-08 15:27:00,
2013-02-08 10:30:00,37.0,33.5,29.91,NW,311,6.5,10.4,87,0.15,RA,,0.19,WeatherDisplay:10.37,2013-02-08 15:30:00,
2013-02-08 10:32:00,37.4,33.6,29.91,WNW,301,5.2,8.8,86,0.14,RA,,0.19,WeatherDisplay:10.37,2013-02-08 15:32:00,
2013-02-08 10:35:00,37.0,33.2,29.92,NW,325,6.8,9.2,86,0.15,RA,,0.20,WeatherDisplay:10.37,2013-02-08 15:35:00,
2013-02-08 10:36:00,37.2,33.4,29.91,NW,306,5.9,8.1,86,0.15,RA,,0.20,WeatherDisplay:10.37,2013-02-08 15:36:00,
2013-02-08 10:37:00,37.4,33.9,29.91,NNW,340,3.2,8.1,87,0.14,RA,,0.21,WeatherDisplay:10.37,2013-02-08 15:37:00,
2013-02-08 10:40:00,37.2,33.7,29.91,WNW,284,6.4,10.4,87,0.15,RA,,0.21,WeatherDisplay:10.37,2013-02-08 15:40:00,
2013-02-08 10:41:00,36.8,33.3,29.91,NW,320,4.2,8.1,87,0.15,RA,,0.21,WeatherDisplay:10.37,2013-02-08 15:41:00,
2013-02-08 10:43:00,36.9,33.1,29.91,NNW,343,6.1,8.1,86,0.15,RA,,0.22,WeatherDisplay:10.37,2013-02-08 15:43:00,
2013-02-08 10:45:00,37.3,33.8,29.91,NNW,340,1.5,4.6,87,0.15,RA,,0.22,WeatherDisplay:10.37,2013-02-08 15:45:00,
2013-02-08 10:46:00,37.3,33.8,29.90,NW,309,3.2,6.9,87,0.15,RA,,0.22,WeatherDisplay:10.37,2013-02-08 15:46:00,
2013-02-08 10:48:00,37.2,34.0,29.90,NW,322,1.6,9.2,88,0.14,RA,,0.22,WeatherDisplay:10.37,2013-02-08 15:48:00,
2013-02-08 10:50:00,37.6,34.4,29.90,NNW,344,4.6,9.2,88,0.15,RA,,0.23,WeatherDisplay:10.37,2013-02-08 15:50:00,
2013-02-08 10:51:00,37.2,34.0,29.90,NNW,344,2.4,9.2,88,0.15,RA,,0.23,WeatherDisplay:10.37,2013-02-08 15:51:00,
2013-02-08 10:53:00,37.4,34.2,29.89,NNW,335,2.6,6.5,88,0.14,RA,,0.23,WeatherDisplay:10.37,2013-02-08 15:53:00,
2013-02-08 10:56:00,37.2,33.7,29.90,NNW,347,2.9,4.6,87,0.14,RA,,0.24,WeatherDisplay:10.37,2013-02-08 15:56:00,
2013-02-08 10:57:00,37.8,34.3,29.90,WNW,302,1.8,5.8,87,0.14,RA,,0.24,WeatherDisplay:10.37,2013-02-08 15:57:00,
2013-02-08 10:58:00,38.1,34.3,29.89,NW,315,4.2,5.8,86,0.14,RA,,0.24,WeatherDisplay:10.37,2013-02-08 15:58:00,
2013-02-08 11:01:00,38.4,34.3,29.89,NNW,332,5.0,6.9,85,0.14,RA,,0.25,WeatherDisplay:10.37,2013-02-08 16:01:00,
2013-02-08 11:02:00,38.3,34.2,29.89,NNW,342,7.6,10.4,85,0.14,RA,,0.25,WeatherDisplay:10.37,2013-02-08 16:02:00,
2013-02-08 11:04:00,38.8,34.4,29.89,NW,318,3.1,7.4,84,0.14,RA,,0.25,WeatherDisplay:10.37,2013-02-08 16:04:00,
2013-02-08 11:06:00,38.7,33.7,29.89,NW,306,4.0,6.9,82,0.14,RA,,0.26,WeatherDisplay:10.37,2013-02-08 16:06:00,
2013-02-08 11:07:00,38.6,34.2,29.89,NNW,337,6.0,10.4,84,0.14,RA,,0.26,WeatherDisplay:10.37,2013-02-08 16:07:00,
2013-02-08 11:09:00,38.7,33.7,29.89,North,357,5.0,6.3,82,0.13,RA,,0.26,WeatherDisplay:10.37,2013-02-08 16:09:00,
2013-02-08 11:11:00,39.5,33.5,29.89,NNW,329,3.9,6.9,79,0.14,RA,,0.27,WeatherDisplay:10.37,2013-02-08 16:11:00,
2013-02-08 11:12:00,40.1,33.8,29.89,NW,323,1.1,4.6,78,0.13,RA,,0.27,WeatherDisplay:10.37,2013-02-08 16:12:00,
2013-02-08 11:14:00,39.9,33.6,29.88,NW,326,4.2,8.1,78,0.14,RA,,0.28,WeatherDisplay:10.37,2013-02-08 16:14:00,
2013-02-08 11:16:00,40.0,32.7,29.88,NW,308,2.7,7.1,75,0.13,RA,,0.28,WeatherDisplay:10.37,2013-02-08 16:16:00,
2013-02-08 11:17:00,40.2,32.9,29.88,WNW,292,4.6,6.9,75,0.13,RA,,0.28,WeatherDisplay:10.37,2013-02-08 16:17:00,
2013-02-08 11:19:00,40.4,32.4,29.88,NNW,335,7.2,7.2,73,0.13,RA,,0.29,WeatherDisplay:10.37,2013-02-08 16:19:00,
2013-02-08 11:21:00,39.9,32.6,29.89,WNW,292,7.1,8.1,75,0.13,RA,,0.29,WeatherDisplay:10.37,2013-02-08 16:21:00,
2013-02-08 11:22:00,39.8,32.8,29.89,North,360,6.1,8.1,76,0.13,RA,,0.30,WeatherDisplay:10.37,2013-02-08 16:22:00,
2013-02-08 11:24:00,39.3,33.3,29.89,NNW,328,5.5,7.2,79,0.13,RA,,0.30,WeatherDisplay:10.37,2013-02-08 16:24:00,
2013-02-08 11:26:00,39.6,33.9,29.89,WNW,291,3.7,8.1,80,0.12,RA,,0.30,WeatherDisplay:10.37,2013-02-08 16:26:00,
2013-02-08 11:27:00,39.6,33.9,29.89,WNW,291,1.4,8.1,80,0.12,RA,,0.30,WeatherDisplay:10.37,2013-02-08 16:27:00,
2013-02-08 11:29:00,39.9,33.6,29.89,NNW,335,5.2,6.9,78,0.12,RA,,0.31,WeatherDisplay:10.37,2013-02-08 16:29:00,
2013-02-08 11:32:00,39.9,33.9,29.88,NNW,346,6.6,9.2,79,0.12,RA,,0.31,WeatherDisplay:10.37,2013-02-08 16:32:00,
2013-02-08 11:34:00,39.5,33.8,29.88,NW,311,4.2,8.1,80,0.12,RA,,0.32,WeatherDisplay:10.37,2013-02-08 16:34:00,
2013-02-08 11:37:00,39.8,33.8,29.88,NNW,335,5.5,6.9,79,0.12,RA,,0.32,WeatherDisplay:10.37,2013-02-08 16:37:00,
2013-02-08 11:38:00,39.6,34.2,29.88,NW,313,5.9,9.2,81,0.11,RA,,0.32,WeatherDisplay:10.37,2013-02-08 16:38:00,
2013-02-08 11:39:00,40.0,34.3,29.88,NW,316,0.9,6.5,80,0.12,RA,,0.33,WeatherDisplay:10.37,2013-02-08 16:39:00,
2013-02-08 11:42:00,39.8,34.1,29.88,NNW,330,6.3,9.2,80,0.12,RA,,0.33,WeatherDisplay:10.37,2013-02-08 16:42:00,
2013-02-08 11:43:00,40.2,34.8,29.88,North,350,2.4,8.1,81,0.11,RA,,0.33,WeatherDisplay:10.37,2013-02-08 16:43:00,
2013-02-08 11:46:00,39.6,33.9,29.88,NW,326,5.4,9.2,80,0.11,RA,,0.33,WeatherDisplay:10.37,2013-02-08 16:46:00,
2013-02-08 11:47:00,40.0,34.3,29.88,NW,306,6.3,6.9,80,0.11,RA,,0.33,WeatherDisplay:10.37,2013-02-08 16:47:00,
2013-02-08 11:48:00,40.1,35.0,29.88,West,281,5.8,9.2,82,0.11,RA,,0.33,WeatherDisplay:10.37,2013-02-08 16:48:00,
2013-02-08 11:52:00,39.9,34.5,29.87,NW,305,4.4,8.1,81,0.10,CLR,,0.33,WeatherDisplay:10.37,2013-02-08 16:52:00,
2013-02-08 11:53:00,40.0,34.6,29.87,NNW,332,1.4,8.1,81,0.10,CLR,,0.33,WeatherDisplay:10.37,2013-02-08 16:53:00,
2013-02-08 11:57:00,40.2,34.8,29.88,NNW,333,2.0,7.3,81,0.09,CLR,,0.33,WeatherDisplay:10.37,2013-02-08 16:57:00,
2013-02-08 11:58:00,40.5,34.5,29.88,NW,318,6.0,8.1,79,0.09,CLR,,0.33,WeatherDisplay:10.37,2013-02-08 16:58:00,
2013-02-08 12:03:00,40.4,33.1,29.87,NNW,337,7.3,9.2,75,0.08,CLR,,0.33,WeatherDisplay:10.37,2013-02-08 17:03:00,
2013-02-08 12:08:00,41.2,32.9,29.87,NW,323,5.5,9.2,72,0.07,CLR,,0.33,WeatherDisplay:10.37,2013-02-08 17:08:00,
2013-02-08 12:09:00,41.4,32.3,29.87,NNW,344,5.0,8.1,70,0.07,CLR,,0.33,WeatherDisplay:10.37,2013-02-08 17:09:00,
2013-02-08 12:13:00,41.8,32.7,29.86,NNE,24,5.5,6.9,70,0.06,CLR,,0.33,WeatherDisplay:10.37,2013-02-08 17:13:00,
2013-02-08 12:14:00,41.7,32.6,29.86,NW,323,5.3,8.8,70,0.05,CLR,,0.33,WeatherDisplay:10.37,2013-02-08 17:14:00,
2013-02-08 12:15:00,41.4,31.6,29.86,NNW,333,7.4,9.2,68,0.05,CLR,,0.33,WeatherDisplay:10.37,2013-02-08 17:15:00,
2013-02-08 12:18:00,41.0,33.3,29.86,WNW,302,5.7,8.1,74,0.04,CLR,,0.33,WeatherDisplay:10.37,2013-02-08 17:18:00,
2013-02-08 12:19:00,41.0,33.0,29.86,WNW,302,7.2,8.1,73,0.04,CLR,,0.33,WeatherDisplay:10.37,2013-02-08 17:19:00,
2013-02-08 12:20:00,41.2,33.5,29.86,WNW,302,6.4,10.4,74,0.04,CLR,,0.33,WeatherDisplay:10.37,2013-02-08 17:20:00,
2013-02-08 12:23:00,41.1,33.8,29.86,NNW,340,4.1,7.2,75,0.03,CLR,,0.33,WeatherDisplay:10.37,2013-02-08 17:23:00,
2013-02-08 12:24:00,41.1,33.8,29.85,WNW,302,6.4,6.9,75,0.03,CLR,,0.33,WeatherDisplay:10.37,2013-02-08 17:24:00,
2013-02-08 12:25:00,41.0,33.7,29.85,NNW,328,6.9,8.1,75,0.03,CLR,,0.33,WeatherDisplay:10.37,2013-02-08 17:25:00,
2013-02-08 12:28:00,41.2,33.2,29.85,NNW,328,6.8,10.4,73,0.02,CLR,,0.33,WeatherDisplay:10.37,2013-02-08 17:28:00,
2013-02-08 12:29:00,41.7,34.0,29.85,NNW,342,4.2,10.4,74,0.02,CLR,,0.33,WeatherDisplay:10.37,2013-02-08 17:29:00,
2013-02-08 12:30:00,41.3,33.3,29.85,NW,322,4.7,12.5,73,0.02,CLR,,0.33,WeatherDisplay:10.37,2013-02-08 17:30:00,
2013-02-08 12:34:00,41.2,33.2,29.85,NNW,342,8.2,11.5,73,0.01,CLR,,0.33,WeatherDisplay:10.37,2013-02-08 17:34:00,
2013-02-08 12:35:00,40.7,33.1,29.85,NNW,332,9.9,14.4,74,0.01,CLR,,0.33,WeatherDisplay:10.37,2013-02-08 17:35:00,
2013-02-08 12:39:00,41.7,34.0,29.85,WNW,292,5.9,9.2,74,0.01,CLR,,0.33,WeatherDisplay:10.37,2013-02-08 17:39:00,
2013-02-08 12:40:00,41.4,33.7,29.85,NW,322,6.9,10.4,74,0.00,CLR,,0.33,WeatherDisplay:10.37,2013-02-08 17:40:00,
2013-02-08 12:44:00,41.8,33.4,29.85,NW,318,7.6,10.4,72,0.00,CLR,,0.33,WeatherDisplay:10.37,2013-02-08 17:44:00,
2013-02-08 12:45:00,41.6,33.2,29.84,NW,316,7.2,10.4,72,0.00,CLR,,0.33,WeatherDisplay:10.37,2013-02-08 17:45:00,
2013-02-08 12:46:00,41.6,33.6,29.84,West,271,7.7,10.4,73,0.00,CLR,,0.33,WeatherDisplay:10.37,2013-02-08 17:46:00,
2013-02-08 12:49:00,41.4,34.1,29.84,NNW,344,8.4,10.4,75,0.00,CLR,,0.33,WeatherDisplay:10.37,2013-02-08 17:49:00,
2013-02-08 12:50:00,41.4,34.1,29.84,NW,316,6.3,13.8,75,0.00,CLR,,0.33,WeatherDisplay:10.37,2013-02-08 17:50:00,
2013-02-08 12:51:00,41.6,33.9,29.85,NNW,346,3.4,5.8,74,0.00,CLR,,0.33,WeatherDisplay:10.37,2013-02-08 17:51:00,
2013-02-08 12:54:00,41.4,33.7,29.84,NNW,347,9.0,11.5,74,0.00,CLR,,0.33,WeatherDisplay:10.37,2013-02-08 17:54:00,
2013-02-08 12:55:00,41.7,34.0,29.84,NNW,337,8.3,12.7,74,0.00,CLR,,0.33,WeatherDisplay:10.37,2013-02-08 17:55:00,
2013-02-08 12:56:00,41.7,34.0,29.84,NW,326,8.0,10.4,74,0.00,CLR,,0.33,WeatherDisplay:10.37,2013-02-08 17:56:00,
2013-02-08 12:59:00,41.8,34.1,29.84,NNW,339,7.5,10.4,74,0.00,CLR,,0.33,WeatherDisplay:10.37,2013-02-08 17:59:00,
2013-02-08 13:00:00,42.1,34.4,29.84,WNW,298,2.5,10.4,74,0.00,CLR,,0.33,WeatherDisplay:10.37,2013-02-08 18:00:00,
2013-02-08 13:02:00,41.9,34.2,29.85,NW,326,7.2,9.3,74,0.00,CLR,,0.33,WeatherDisplay:10.37,2013-02-08 18:02:00,
2013-02-08 13:04:00,41.8,33.8,29.85,NW,312,5.0,11.5,73,0.00,CLR,,0.33,WeatherDisplay:10.37,2013-02-08 18:04:00,
2013-02-08 13:05:00,42.1,34.1,29.84,NW,326,6.3,9.2,73,0.00,CLR,,0.33,WeatherDisplay:10.37,2013-02-08 18:05:00,
2013-02-08 13:06:00,41.9,33.9,29.84,NW,308,6.4,9.2,73,0.00,CLR,,0.33,WeatherDisplay:10.37,2013-02-08 18:06:00,
2013-02-08 13:07:00,41.9,34.2,29.85,NW,316,6.3,11.5,74,0.00,CLR,,0.33,WeatherDisplay:10.37,2013-02-08 18:07:00,
2013-02-08 13:09:00,41.9,33.9,29.85,WNW,295,6.7,12.7,73,0.00,CLR,,0.33,WeatherDisplay:10.37,2013-02-08 18:09:00,
2013-02-08 13:10:00,42.1,34.4,29.85,NW,316,7.1,9.3,74,0.00,CLR,,0.33,WeatherDisplay:10.37,2013-02-08 18:10:00,
2013-02-08 13:11:00,42.0,34.3,29.85,WNW,291,7.3,8.7,74,0.00,CLR,,0.33,WeatherDisplay:10.37,2013-02-08 18:11:00,
2013-02-08 13:12:00,41.9,33.9,29.85,WNW,302,3.5,8.1,73,0.00,CLR,,0.33,WeatherDisplay:10.37,2013-02-08 18:12:00,
2013-02-08 13:14:00,42.1,34.1,29.85,NW,312,3.1,9.2,73,0.00,CLR,,0.33,WeatherDisplay:10.37,2013-02-08 18:14:00,
2013-02-08 13:16:00,42.0,34.0,29.85,NNW,329,6.7,9.2,73,0.00,CLR,,0.33,WeatherDisplay:10.37,2013-02-08 18:16:00,
2013-02-08 13:17:00,42.0,34.0,29.85,NW,304,4.7,9.2,73,0.00,CLR,,0.33,WeatherDisplay:10.37,2013-02-08 18:17:00,
2013-02-08 13:20:00,42.0,34.0,29.85,NW,309,4.4,8.1,73,0.00,CLR,,0.33,WeatherDisplay:10.37,2013-02-08 18:20:00,
2013-02-08 13:21:00,42.2,34.2,29.85,NW,318,7.1,7.3,73,0.00,CLR,,0.33,WeatherDisplay:10.37,2013-02-08 18:21:00,
2013-02-08 13:23:00,42.3,34.3,29.85,NW,312,4.8,8.1,73,0.00,CLR,,0.33,WeatherDisplay:10.37,2013-02-08 18:23:00,
2013-02-08 13:25:00,42.4,34.4,29.85,NW,312,5.6,9.2,73,0.00,CLR,,0.33,WeatherDisplay:10.37,2013-02-08 18:25:00,
2013-02-08 13:27:00,42.7,34.3,29.84,WNW,288,5.2,10.4,72,0.00,CLR,,0.33,WeatherDisplay:10.37,2013-02-08 18:27:00,
2013-02-08 13:28:00,42.9,34.1,29.84,West,281,0.4,6.9,71,0.00,CLR,,0.33,WeatherDisplay:10.37,2013-02-08 18:28:00,
2013-02-08 13:30:00,43.4,32.8,29.84,WNW,301,2.2,5.8,66,0.00,CLR,,0.33,WeatherDisplay:10.37,2013-02-08 18:30:00,
2013-02-08 13:32:00,44.5,32.3,29.84,NW,326,0.6,4.6,62,0.00,CLR,,0.33,WeatherDisplay:10.37,2013-02-08 18:32:00,
2013-02-08 13:34:00,44.4,31.8,29.84,NNW,342,4.6,5.8,61,0.00,CLR,,0.33,WeatherDisplay:10.37,2013-02-08 18:34:00,
2013-02-08 13:35:00,44.6,32.0,29.84,WNW,291,3.4,8.1,61,0.00,CLR,,0.33,WeatherDisplay:10.37,2013-02-08 18:35:00,
2013-02-08 13:38:00,44.9,31.8,29.84,NNW,335,0.9,4.6,60,0.00,CLR,,0.33,WeatherDisplay:10.37,2013-02-08 18:38:00,
2013-02-08 13:39:00,44.8,31.8,29.84,NW,320,2.9,6.9,60,0.00,CLR,,0.33,WeatherDisplay:10.37,2013-02-08 18:39:00,
2013-02-08 13:42:00,45.7,30.9,29.84,WNW,288,0.0,0.0,56,0.00,CLR,,0.33,WeatherDisplay:10.37,2013-02-08 18:42:00,
2013-02-08 13:43:00,45.7,29.5,29.84,NNE,28,1.3,5.8,53,0.00,CLR,,0.33,WeatherDisplay:10.37,2013-02-08 18:43:00,
2013-02-08 13:44:00,46.0,30.3,29.84,NNE,27,0.1,3.5,54,0.00,CLR,,0.33,WeatherDisplay:10.37,2013-02-08 18:44:00,
2013-02-08 13:47:00,46.3,29.6,29.84,NNE,27,0.0,0.0,52,0.00,CLR,,0.33,WeatherDisplay:10.37,2013-02-08 18:47:00,
2013-02-08 13:48:00,46.0,29.3,29.84,NNE,27,0.0,0.0,52,0.00,CLR,,0.33,WeatherDisplay:10.37,2013-02-08 18:48:00,
2013-02-08 13:49:00,46.0,29.3,29.84,NNE,27,0.0,0.0,52,0.00,CLR,,0.33,WeatherDisplay:10.37,2013-02-08 18:49:00,
2013-02-08 13:50:00,46.0,29.3,29.84,NNE,27,0.0,0.0,52,0.00,CLR,,0.33,WeatherDisplay:10.37,2013-02-08 18:50:00,
2013-02-08 13:52:00,45.7,31.3,29.84,NNE,27,0.0,0.0,57,0.00,CLR,,0.33,WeatherDisplay:10.37,2013-02-08 18:52:00,
2013-02-08 13:54:00,45.9,31.5,29.84,NNE,27,0.0,0.0,57,0.00,CLR,,0.33,WeatherDisplay:10.37,2013-02-08 18:54:00,
2013-02-08 13:55:00,45.5,31.6,29.84,NNE,27,0.0,0.0,58,0.00,CLR,,0.33,WeatherDisplay:10.37,2013-02-08 18:55:00,
2013-02-08 13:58:00,45.2,32.1,29.84,North,360,1.2,4.6,60,0.00,CLR,,0.33,WeatherDisplay:10.37,2013-02-08 18:58:00,
2013-02-08 13:59:00,45.0,31.9,29.84,North,360,0.0,0.0,60,0.00,CLR,,0.33,WeatherDisplay:10.37,2013-02-08 18:59:00,
2013-02-08 14:00:00,45.0,31.9,29.84,North,360,0.0,0.0,60,0.00,CLR,,0.33,WeatherDisplay:10.37,2013-02-08 19:00:00,
2013-02-08 14:03:00,45.5,32.8,29.84,North,360,0.0,0.0,61,0.00,CLR,,0.33,WeatherDisplay:10.37,2013-02-08 19:03:00,
2013-02-08 14:05:00,45.7,30.9,29.84,North,360,0.0,0.0,56,0.00,CLR,,0.33,WeatherDisplay:10.37,2013-02-08 19:05:00,
2013-02-08 14:06:00,45.8,30.5,29.84,North,360,0.0,0.0,55,0.00,CLR,,0.33,WeatherDisplay:10.37,2013-02-08 19:06:00,
2013-02-08 14:08:00,45.5,30.7,29.84,North,360,0.0,0.0,56,0.00,CLR,,0.33,WeatherDisplay:10.37,2013-02-08 19:08:00,
2013-02-08 14:10:00,46.0,30.7,29.84,North,360,0.0,0.0,55,0.00,CLR,,0.33,WeatherDisplay:10.37,2013-02-08 19:10:00,
2013-02-08 14:11:00,46.2,30.9,29.84,North,360,0.0,0.0,55,0.00,CLR,,0.33,WeatherDisplay:10.37,2013-02-08 19:11:00,
2013-02-08 14:13:00,46.8,31.5,29.84,North,360,0.0,0.0,55,0.00,CLR,,0.33,WeatherDisplay:10.37,2013-02-08 19:13:00,
2013-02-08 14:15:00,46.8,30.1,29.84,North,360,0.0,0.0,52,0.00,CLR,,0.33,WeatherDisplay:10.37,2013-02-08 19:15:00,
2013-02-08 14:16:00,46.9,29.2,29.84,North,349,1.6,4.6,50,0.00,CLR,,0.33,WeatherDisplay:10.37,2013-02-08 19:16:00,
2013-02-08 14:18:00,46.6,30.8,29.84,North,349,1.6,4.6,54,0.00,CLR,,0.33,WeatherDisplay:10.37,2013-02-08 19:18:00,
2013-02-08 14:20:00,47.1,30.4,29.84,North,349,0.0,0.0,52,0.00,CLR,,0.33,WeatherDisplay:10.37,2013-02-08 19:20:00,
2013-02-08 14:21:00,47.1,30.8,29.84,North,349,0.0,0.0,53,0.00,CLR,,0.33,WeatherDisplay:10.37,2013-02-08 19:21:00,
2013-02-08 14:23:00,48.0,28.2,29.84,North,349,0.0,0.0,46,0.00,CLR,,0.33,WeatherDisplay:10.37,2013-02-08 19:23:00,
2013-02-08 14:25:00,48.5,26.4,29.84,WNW,285,2.1,0.0,42,0.00,CLR,,0.33,WeatherDisplay:10.37,2013-02-08 19:25:00,
2013-02-08 14:26:00,48.5,26.4,29.84,WNW,285,0.0,0.0,42,0.00,CLR,,0.33,WeatherDisplay:10.37,2013-02-08 19:26:00,
2013-02-08 14:28:00,48.5,27.0,29.84,West,270,4.8,7.1,43,0.00,CLR,,0.33,WeatherDisplay:10.37,2013-02-08 19:28:00,
2013-02-08 14:30:00,48.3,27.4,29.84,WSW,253,3.6,5.8,44,0.00,CLR,,0.33,WeatherDisplay:10.37,2013-02-08 19:30:00,
2013-02-08 14:31:00,48.5,28.6,29.83,WSW,253,0.0,0.0,46,0.00,CLR,,0.33,WeatherDisplay:10.37,2013-02-08 19:31:00,
2013-02-08 14:32:00,48.5,28.6,29.83,West,270,0.3,0.0,46,0.00,CLR,,0.33,WeatherDisplay:10.37,2013-02-08 19:32:00,
2013-02-08 14:33:00,48.2,28.9,29.84,WNW,289,0.8,4.6,47,0.00,CLR,,0.33,WeatherDisplay:10.37,2013-02-08 19:33:00,
2013-02-08 14:35:00,48.4,28.5,29.84,West,281,4.7,8.1,46,0.00,CLR,,0.33,WeatherDisplay:10.37,2013-02-08 19:35:00,
2013-02-08 14:36:00,48.3,28.5,29.83,WNW,288,3.5,6.9,46,0.00,CLR,,0.33,WeatherDisplay:10.37,2013-02-08 19:36:00,
2013-02-08 14:37:00,48.2,28.4,29.84,WNW,289,5.3,6.9,46,0.00,CLR,,0.33,WeatherDisplay:10.37,2013-02-08 19:37:00,
2013-02-08 14:39:00,48.2,28.9,29.84,NW,311,0.0,4.6,47,0.00,CLR,,0.33,WeatherDisplay:10.37,2013-02-08 19:39:00,
2013-02-08 14:40:00,48.4,29.1,29.84,NW,311,0.0,0.0,47,0.00,CLR,,0.33,WeatherDisplay:10.37,2013-02-08 19:40:00,
2013-02-08 14:41:00,48.5,28.6,29.83,NW,311,0.0,0.0,46,0.00,CLR,,0.33,WeatherDisplay:10.37,2013-02-08 19:41:00,
2013-02-08 14:42:00,48.5,28.6,29.83,West,265,2.3,6.9,46,0.00,CLR,,0.33,WeatherDisplay:10.37,2013-02-08 19:42:00,
2013-02-08 14:44:00,48.2,25.6,29.83,NW,306,6.7,16.1,41,0.00,CLR,,0.33,WeatherDisplay:10.37,2013-02-08 19:44:00,
2013-02-08 14:45:00,48.5,24.6,29.83,WNW,296,10.3,17.3,39,0.00,CLR,,0.33,WeatherDisplay:10.37,2013-02-08 19:45:00,
2013-02-08 14:46:00,48.5,23.4,29.83,West,268,9.1,11.5,37,0.00,CLR,,0.33,WeatherDisplay:10.37,2013-02-08 19:46:00,
2013-02-08 14:47:00,48.5,24.0,29.83,WNW,301,7.8,16.1,38,0.00,CLR,,0.33,WeatherDisplay:10.37,2013-02-08 19:47:00,
2013-02-08 14:49:00,48.5,23.4,29.83,WNW,289,4.8,10.4,37,0.00,CLR,,0.33,WeatherDisplay:10.37,2013-02-08 19:49:00,
2013-02-08 14:51:00,48.5,22.1,29.83,West,268,8.7,10.4,35,0.00,CLR,,0.33,WeatherDisplay:10.37,2013-02-08 19:51:00,
2013-02-08 14:53:00,48.5,19.9,29.83,West,265,6.5,9.2,32,0.00,CLR,,0.33,WeatherDisplay:10.37,2013-02-08 19:53:00,
2013-02-08 14:54:00,48.5,19.2,29.83,WNW,298,5.9,8.1,31,0.00,CLR,,0.33,WeatherDisplay:10.37,2013-02-08 19:54:00,
2013-02-08 14:56:00,48.6,19.3,29.83,NW,323,4.9,9.3,31,0.00,CLR,,0.33,WeatherDisplay:10.37,2013-02-08 19:56:00,
2013-02-08 14:58:00,48.7,17.8,29.83,WNW,299,8.5,12.7,29,0.00,CLR,,0.33,WeatherDisplay:10.37,2013-02-08 19:58:00,
2013-02-08 14:59:00,48.6,18.5,29.83,WNW,302,7.2,12.7,30,0.00,CLR,,0.33,WeatherDisplay:10.37,2013-02-08 19:59:00,
2013-02-08 15:01:00,48.7,17.8,29.83,West,280,7.6,11.5,29,0.00,CLR,,0.33,WeatherDisplay:10.37,2013-02-08 20:01:00,
2013-02-08 15:02:00,48.7,18.6,29.83,WNW,302,4.9,11.5,30,0.00,CLR,,0.33,WeatherDisplay:10.37,2013-02-08 20:02:00,
2013-02-08 15:03:00,48.6,18.5,29.83,WSW,253,4.7,9.3,30,0.00,CLR,,0.33,WeatherDisplay:10.37,2013-02-08 20:03:00,
2013-02-08 15:05:00,48.6,16.9,29.83,West,268,8.1,12.7,28,0.00,CLR,,0.33,WeatherDisplay:10.37,2013-02-08 20:05:00,
2013-02-08 15:06:00,48.7,17.0,29.83,NNW,337,7.9,12.7,28,0.00,CLR,,0.33,WeatherDisplay:10.37,2013-02-08 20:06:00,
2013-02-08 15:07:00,48.8,17.1,29.83,WSW,248,9.4,12.7,28,0.00,CLR,,0.33,WeatherDisplay:10.37,2013-02-08 20:07:00,
2013-02-08 15:08:00,49.0,17.3,29.83,NNW,335,6.9,15.0,28,0.00,CLR,,0.33,WeatherDisplay:10.37,2013-02-08 20:08:00,
2013-02-08 15:10:00,49.2,16.6,29.83,NNW,340,6.3,9.2,27,0.00,CLR,,0.33,WeatherDisplay:10.37,2013-02-08 20:10:00,
2013-02-08 15:11:00,48.9,18.0,29.83,West,263,6.1,12.7,29,0.00,CLR,,0.33,WeatherDisplay:10.37,2013-02-08 20:11:00,
2013-02-08 15:12:00,49.2,16.6,29.83,WNW,298,7.1,12.7,27,0.00,CLR,,0.33,WeatherDisplay:10.37,2013-02-08 20:12:00,
2013-02-08 15:13:00,49.0,16.4,29.83,NNW,335,7.0,12.7,27,0.00,CLR,,0.33,WeatherDisplay:10.37,2013-02-08 20:13:00,
2013-02-08 15:15:00,49.1,16.5,29.83,WNW,299,11.2,16.1,27,0.00,CLR,,0.33,WeatherDisplay:10.37,2013-02-08 20:15:00,
2013-02-08 15:16:00,49.6,16.9,29.83,West,267,7.5,17.3,27,0.00,CLR,,0.33,WeatherDisplay:10.37,2013-02-08 20:16:00,
2013-02-08 15:17:00,49.5,16.9,29.83,West,275,6.4,12.2,27,0.00,CLR,,0.33,WeatherDisplay:10.37,2013-02-08 20:17:00,
2013-02-08 15:18:00,49.5,15.1,29.83,North,349,10.8,16.1,25,0.00,CLR,,0.33,WeatherDisplay:10.37,2013-02-08 20:18:00,
2013-02-08 15:20:00,49.8,16.2,29.83,NW,316,9.5,18.4,26,0.00,CLR,,0.33,WeatherDisplay:10.37,2013-02-08 20:20:00,
2013-02-08 15:22:00,49.9,15.4,29.83,NW,322,7.1,13.8,25,0.00,CLR,,0.33,WeatherDisplay:10.37,2013-02-08 20:22:00,
2013-02-08 15:24:00,50.3,16.7,29.83,WNW,295,9.6,13.8,26,0.00,CLR,,0.33,WeatherDisplay:10.37,2013-02-08 20:24:00,
2013-02-08 15:25:00,50.0,14.6,29.84,NW,322,13.4,16.1,24,0.00,CLR,,0.33,WeatherDisplay:10.37,2013-02-08 20:25:00,
2013-02-08 15:27:00,50.0,14.6,29.84,West,272,10.0,15.0,24,0.00,CLR,,0.33,WeatherDisplay:10.37,2013-02-08 20:27:00,
2013-02-08 15:29:00,49.6,13.3,29.84,West,265,15.2,25.3,23,0.00,CLR,,0.33,WeatherDisplay:10.37,2013-02-08 20:29:00,
2013-02-08 15:31:00,49.4,14.1,29.84,NNW,336,8.1,13.8,24,0.00,CLR,,0.33,WeatherDisplay:10.37,2013-02-08 20:31:00,
2013-02-08 15:32:00,49.8,14.4,29.84,NW,318,10.4,17.3,24,0.00,CLR,,0.33,WeatherDisplay:10.37,2013-02-08 20:32:00,
2013-02-08 15:34:00,49.9,12.5,29.84,NW,325,12.3,20.7,22,0.00,CLR,,0.33,WeatherDisplay:10.37,2013-02-08 20:34:00,
2013-02-08 15:36:00,49.7,12.3,29.84,WNW,289,11.8,18.4,22,0.00,CLR,,0.33,WeatherDisplay:10.37,2013-02-08 20:36:00,
2013-02-08 15:37:00,49.8,12.4,29.84,West,281,12.2,21.9,22,0.00,CLR,,0.33,WeatherDisplay:10.37,2013-02-08 20:37:00,
2013-02-08 15:39:00,49.5,13.2,29.85,WSW,257,10.1,16.1,23,0.00,CLR,,0.33,WeatherDisplay:10.37,2013-02-08 20:39:00,
2013-02-08 15:41:00,49.9,14.5,29.84,WSW,258,7.5,11.5,24,0.00,CLR,,0.33,WeatherDisplay:10.37,2013-02-08 20:41:00,
2013-02-08 15:42:00,49.6,12.2,29.85,WNW,288,9.8,14.3,22,0.00,CLR,,0.33,WeatherDisplay:10.37,2013-02-08 20:42:00,
2013-02-08 15:45:00,49.6,12.2,29.85,WNW,289,10.8,17.3,22,0.00,CLR,,0.33,WeatherDisplay:10.37,2013-02-08 20:45:00,
2013-02-08 15:46:00,49.6,13.3,29.85,NW,309,11.8,16.1,23,0.00,CLR,,0.33,WeatherDisplay:10.37,2013-02-08 20:46:00,
2013-02-08 15:47:00,49.2,10.9,29.85,NW,309,13.9,21.1,21,0.00,CLR,,0.33,WeatherDisplay:10.37,2013-02-08 20:47:00,
2013-02-08 15:50:00,49.0,11.7,29.85,NW,304,13.9,22.7,22,0.00,CLR,,0.33,WeatherDisplay:10.37,2013-02-08 20:50:00,
2013-02-08 15:51:00,48.9,11.7,29.85,West,268,10.2,23.0,22,0.00,CLR,,0.33,WeatherDisplay:10.37,2013-02-08 20:51:00,
2013-02-08 15:52:00,48.6,12.4,29.86,NNW,339,13.5,21.9,23,0.00,CLR,,0.33,WeatherDisplay:10.37,2013-02-08 20:52:00,
2013-02-08 15:55:00,48.5,12.3,29.86,WNW,294,14.2,25.3,23,0.00,CLR,,0.33,WeatherDisplay:10.37,2013-02-08 20:55:00,
2013-02-08 15:56:00,48.5,12.3,29.86,NW,306,10.9,18.4,23,0.00,CLR,,0.33,WeatherDisplay:10.37,2013-02-08 20:56:00,
2013-02-08 15:57:00,48.5,12.3,29.86,NW,316,11.7,18.4,23,0.00,CLR,,0.33,WeatherDisplay:10.37,2013-02-08 20:57:00,
2013-02-08 15:58:00,48.5,13.3,29.86,NNW,333,12.2,18.4,24,0.00,CLR,,0.33,WeatherDisplay:10.37,2013-02-08 20:58:00,
2013-02-08 16:00:00,48.5,12.3,29.87,SW,229,11.0,18.4,23,0.00,CLR,,0.33,WeatherDisplay:10.37,2013-02-08 21:00:00,
2013-02-08 16:02:00,48.5,13.3,29.87,NNE,14,10.9,15.0,24,0.00,CLR,,0.33,WeatherDisplay:10.37,2013-02-08 21:02:00,
2013-02-08 16:03:00,48.5,13.3,29.87,WNW,298,10.4,15.0,24,0.00,CLR,,0.33,WeatherDisplay:10.37,2013-02-08 21:03:00,
2013-02-08 16:05:00,48.5,10.3,29.87,WNW,296,14.9,28.8,21,0.00,CLR,,0.33,WeatherDisplay:10.37,2013-02-08 21:05:00,
2013-02-08 16:07:00,48.5,13.3,29.87,WSW,257,13.5,21.9,24,0.00,CLR,,0.33,WeatherDisplay:10.37,2013-02-08 21:07:00,
2013-02-08 16:08:00,48.5,13.3,29.88,NW,316,13.2,19.6,24,0.00,CLR,,0.33,WeatherDisplay:10.37,2013-02-08 21:08:00,
2013-02-08 16:10:00,48.5,14.2,29.88,NNW,329,9.6,18.4,25,0.00,CLR,,0.33,WeatherDisplay:10.37,2013-02-08 21:10:00,
2013-02-08 16:12:00,48.5,13.3,29.88,NW,318,13.9,17.1,24,0.00,CLR,,0.33,WeatherDisplay:10.37,2013-02-08 21:12:00,
2013-02-08 16:13:00,48.5,13.3,29.88,NNW,329,14.2,24.2,24,0.00,CLR,,0.33,WeatherDisplay:10.37,2013-02-08 21:13:00,
2013-02-08 16:15:00,48.3,16.7,29.88,WNW,295,12.3,21.9,28,0.00,CLR,,0.33,WeatherDisplay:10.37,2013-02-08 21:15:00,
2013-02-08 16:18:00,47.3,18.1,29.89,North,4,11.0,17.3,31,0.00,CLR,,0.33,WeatherDisplay:10.37,2013-02-08 21:18:00,
2013-02-08 16:20:00,46.7,16.9,29.89,NNE,14,13.2,18.4,30,0.00,CLR,,0.33,WeatherDisplay:10.37,2013-02-08 21:20:00,
2013-02-08 16:23:00,45.8,16.8,29.89,WNW,298,11.8,18.4,31,0.00,CLR,,0.33,WeatherDisplay:10.37,2013-02-08 21:23:00,
2013-02-08 16:26:00,45.4,15.7,29.90,NW,305,13.9,21.9,30,0.00,CLR,,0.33,WeatherDisplay:10.37,2013-02-08 21:26:00,
2013-02-08 16:28:00,45.3,16.4,29.89,NNW,335,15.6,23.0,31,0.00,CLR,,0.33,WeatherDisplay:10.37,2013-02-08 21:28:00,
2013-02-08 16:29:00,45.2,16.3,29.89,North,360,10.9,23.0,31,0.00,CLR,,0.33,WeatherDisplay:10.37,2013-02-08 21:29:00,
2013-02-08 16:31:00,44.9,16.0,29.90,NW,322,12.2,18.4,31,0.00,CLR,,0.33,WeatherDisplay:10.37,2013-02-08 21:31:00,
2013-02-08 16:33:00,44.6,16.5,29.90,NNW,328,12.0,13.8,32,0.00,CLR,,0.33,WeatherDisplay:10.37,2013-02-08 21:33:00,
2013-02-08 16:34:00,44.7,16.6,29.90,WNW,302,12.4,15.0,32,0.00,CLR,,0.33,WeatherDisplay:10.37,2013-02-08 21:34:00,
2013-02-08 16:36:00,44.5,15.7,29.90,NNE,16,15.4,21.9,31,0.00,CLR,,0.33,WeatherDisplay:10.37,2013-02-08 21:36:00,
2013-02-08 16:38:00,44.2,15.4,29.90,WNW,291,11.6,18.4,31,0.00,CLR,,0.33,WeatherDisplay:10.37,2013-02-08 21:38:00,
2013-02-08 16:39:00,44.1,15.3,29.90,NNE,13,11.2,17.3,31,0.00,CLR,,0.33,WeatherDisplay:10.37,2013-02-08 21:39:00,
2013-02-08 16:40:00,44.1,15.3,29.90,North,354,10.9,19.6,31,0.00,CLR,,0.33,WeatherDisplay:10.37,2013-02-08 21:40:00,
2013-02-08 16:42:00,43.8,15.1,29.90,NNW,333,13.9,25.3,31,0.00,CLR,,0.33,WeatherDisplay:10.37,2013-02-08 21:42:00,
2013-02-08 16:43:00,43.9,15.9,29.90,NNW,339,11.7,18.4,32,0.00,CLR,,0.33,WeatherDisplay:10.37,2013-02-08 21:43:00,
2013-02-08 16:44:00,43.7,15.7,29.90,NW,318,9.2,16.1,32,0.00,CLR,,0.33,WeatherDisplay:10.37,2013-02-08 21:44:00,
2013-02-08 16:45:00,44.0,16.0,29.91,NW,323,9.6,13.8,32,0.00,CLR,,0.33,WeatherDisplay:10.37,2013-02-08 21:45:00,
2013-02-08 16:47:00,43.6,15.6,29.91,NW,315,13.0,18.4,32,0.00,CLR,,0.33,WeatherDisplay:10.37,2013-02-08 21:47:00,
2013-02-08 16:49:00,43.7,15.7,29.91,North,349,13.1,16.1,32,0.00,CLR,,0.33,WeatherDisplay:10.37,2013-02-08 21:49:00,
2013-02-08 16:50:00,43.5,15.5,29.91,WNW,292,10.0,16.1,32,0.00,CLR,,0.33,WeatherDisplay:10.37,2013-02-08 21:50:00,
2013-02-08 16:52:00,43.8,16.5,29.91,North,350,9.8,16.1,33,0.00,CLR,,0.33,WeatherDisplay:10.37,2013-02-08 21:52:00,
2013-02-08 16:54:00,43.1,15.9,29.91,North,360,14.8,21.9,33,0.00,CLR,,0.33,WeatherDisplay:10.37,2013-02-08 21:54:00,
2013-02-08 16:55:00,43.4,15.5,29.91,WNW,289,14.1,20.7,32,0.00,CLR,,0.33,WeatherDisplay:10.37,2013-02-08 21:55:00,
2013-02-08 16:58:00,43.5,16.3,29.91,WNW,301,11.0,17.3,33,0.00,CLR,,0.33,WeatherDisplay:10.37,2013-02-08 21:58:00,
2013-02-08 16:59:00,43.0,15.8,29.91,NW,308,9.8,18.4,33,0.00,CLR,,0.33,WeatherDisplay:10.37,2013-02-08 21:59:00,
2013-02-08 17:00:00,43.2,16.7,29.91,WNW,302,8.9,13.8,34,0.00,CLR,,0.33,WeatherDisplay:10.37,2013-02-08 22:00:00,
2013-02-08 17:03:00,43.1,15.9,29.92,NW,326,10.2,18.4,33,0.00,CLR,,0.33,WeatherDisplay:10.37,2013-02-08 22:03:00,
2013-02-08 17:04:00,43.2,16.7,29.92,NW,318,9.6,19.6,34,0.00,CLR,,0.33,WeatherDisplay:10.37,2013-02-08 22:04:00,
2013-02-08 17:05:00,43.5,17.6,29.92,West,263,7.7,15.0,35,0.00,CLR,,0.33,WeatherDisplay:10.37,2013-02-08 22:05:00,
2013-02-08 17:06:00,43.1,16.6,29.92,NW,305,6.2,10.4,34,0.00,CLR,,0.33,WeatherDisplay:10.37,2013-02-08 22:06:00,
2013-02-08 17:08:00,43.4,17.5,29.92,NW,313,8.6,15.2,35,0.00,CLR,,0.33,WeatherDisplay:10.37,2013-02-08 22:08:00,
2013-02-08 17:09:00,43.3,18.1,29.92,NW,319,6.3,16.1,36,0.00,CLR,,0.33,WeatherDisplay:10.37,2013-02-08 22:09:00,
2013-02-08 17:10:00,43.1,17.3,29.92,NNW,328,8.6,17.3,35,0.00,CLR,,0.33,WeatherDisplay:10.37,2013-02-08 22:10:00,
2013-02-08 17:11:00,43.4,17.5,29.92,NW,308,9.8,17.3,35,0.00,CLR,,0.33,WeatherDisplay:10.37,2013-02-08 22:11:00,
2013-02-08 17:13:00,43.0,17.8,29.92,NW,304,10.4,13.8,36,0.00,CLR,,0.33,WeatherDisplay:10.37,2013-02-08 22:13:00,
2013-02-08 17:15:00,43.1,18.6,29.92,NNW,336,8.8,13.8,37,0.00,CLR,,0.33,WeatherDisplay:10.37,2013-02-08 22:15:00,
2013-02-08 17:16:00,42.8,17.7,29.92,WNW,301,12.0,18.4,36,0.00,CLR,,0.33,WeatherDisplay:10.37,2013-02-08 22:16:00,
2013-02-08 17:18:00,42.8,18.3,29.92,WNW,298,11.3,16.1,37,0.00,CLR,,0.33,WeatherDisplay:10.37,2013-02-08 22:18:00,
2013-02-08 17:20:00,42.5,18.6,29.92,NW,316,8.6,12.7,38,0.00,CLR,,0.33,WeatherDisplay:10.37,2013-02-08 22:20:00,
2013-02-08 17:21:00,42.5,17.4,29.92,NW,312,9.5,17.2,36,0.00,CLR,,0.33,WeatherDisplay:10.37,2013-02-08 22:21:00,
2013-02-08 17:23:00,42.5,16.7,29.92,NNW,330,10.8,17.3,35,0.00,CLR,,0.33,WeatherDisplay:10.37,2013-02-08 22:23:00,
2013-02-08 17:25:00,42.6,17.5,29.92,NW,315,8.3,11.2,36,0.00,CLR,,0.33,WeatherDisplay:10.37,2013-02-08 22:25:00,
2013-02-08 17:26:00,42.5,17.4,29.93,WNW,301,10.0,19.9,36,0.00,CLR,,0.33,WeatherDisplay:10.37,2013-02-08 22:26:00,
2013-02-08 17:28:00,42.4,17.3,29.93,WNW,299,7.9,18.4,36,0.00,CLR,,0.33,WeatherDisplay:10.37,2013-02-08 22:28:00,
2013-02-08 17:30:00,42.1,17.0,29.93,North,8,8.7,17.3,36,0.00,CLR,,0.33,WeatherDisplay:10.37,2013-02-08 22:30:00,
2013-02-08 17:31:00,42.2,16.5,29.93,WNW,292,10.5,13.8,35,0.00,CLR,,0.33,WeatherDisplay:10.37,2013-02-08 22:31:00,
2013-02-08 17:33:00,42.3,16.6,29.93,WNW,301,13.6,21.9,35,0.00,CLR,,0.33,WeatherDisplay:10.37,2013-02-08 22:33:00,
2013-02-08 17:35:00,42.2,16.5,29.93,West,280,11.1,17.3,35,0.00,CLR,,0.33,WeatherDisplay:10.37,2013-02-08 22:35:00,
2013-02-08 17:36:00,42.3,16.6,29.93,NW,319,10.0,18.3,35,0.00,CLR,,0.33,WeatherDisplay:10.37,2013-02-08 22:36:00,
2013-02-08 17:39:00,42.2,15.8,29.93,West,272,11.8,18.4,34,0.00,CLR,,0.33,WeatherDisplay:10.37,2013-02-08 22:39:00,
2013-02-08 17:40:00,42.5,16.7,29.93,WNW,298,10.8,17.3,35,0.00,CLR,,0.33,WeatherDisplay:10.37,2013-02-08 22:40:00,
2013-02-08 17:41:00,42.1,16.4,29.93,NW,304,11.3,17.3,35,0.00,CLR,,0.33,WeatherDisplay:10.37,2013-02-08 22:41:00,
2013-02-08 17:44:00,42.1,17.0,29.93,North,357,8.5,12.7,36,0.00,CLR,,0.33,WeatherDisplay:10.37,2013-02-08 22:44:00,
2013-02-08 17:45:00,42.1,15.7,29.93,WNW,302,9.1,10.4,34,0.00,CLR,,0.33,WeatherDisplay:10.37,2013-02-08 22:45:00,
2013-02-08 17:47:00,42.1,16.4,29.93,NW,306,9.1,15.0,35,0.00,CLR,,0.33,WeatherDisplay:10.37,2013-02-08 22:47:00,
2013-02-08 17:49:00,42.1,15.0,29.93,NW,315,12.5,20.7,33,0.00,CLR,,0.33,WeatherDisplay:10.37,2013-02-08 22:49:00,
2013-02-08 17:50:00,42.0,14.9,29.93,West,280,12.1,19.6,33,0.00,CLR,,0.33,WeatherDisplay:10.37,2013-02-08 22:50:00,
2013-02-08 17:51:00,42.0,14.9,29.93,WNW,301,11.4,17.3,33,0.00,CLR,,0.33,WeatherDisplay:10.37,2013-02-08 22:51:00,
2013-02-08 17:52:00,41.9,15.5,29.94,NW,319,8.5,12.7,34,0.00,CLR,,0.33,WeatherDisplay:10.37,2013-02-08 22:52:00,
2013-02-08 17:54:00,42.2,15.1,29.94,WNW,301,10.7,15.0,33,0.00,CLR,,0.33,WeatherDisplay:10.37,2013-02-08 22:54:00,
2013-02-08 17:55:00,41.8,14.8,29.94,NW,326,10.5,15.0,33,0.00,CLR,,0.33,WeatherDisplay:10.37,2013-02-08 22:55:00,
2013-02-08 17:56:00,42.1,14.3,29.94,NNW,335,12.4,16.1,32,0.00,CLR,,0.33,WeatherDisplay:10.37,2013-02-08 22:56:00,
2013-02-08 17:57:00,41.9,14.1,29.94,NW,309,12.2,19.6,32,0.00,CLR,,0.33,WeatherDisplay:10.37,2013-02-08 22:57:00,
2013-02-08 17:59:00,41.8,14.1,29.94,NW,316,10.5,13.1,32,0.00,CLR,,0.33,WeatherDisplay:10.37,2013-02-08 22:59:00,
2013-02-08 18:00:00,41.8,14.1,29.94,West,281,13.0,21.9,32,0.00,CLR,,0.33,WeatherDisplay:10.37,2013-02-08 23:00:00,
2013-02-08 18:01:00,41.2,13.5,29.94,NW,311,12.8,21.9,32,0.00,CLR,,0.33,WeatherDisplay:10.37,2013-02-08 23:01:00,
2013-02-08 18:02:00,41.9,13.4,29.94,NW,312,13.2,21.9,31,0.00,CLR,,0.33,WeatherDisplay:10.37,2013-02-08 23:02:00,
2013-02-08 18:04:00,41.8,14.1,29.94,North,7,11.0,18.4,32,0.00,CLR,,0.33,WeatherDisplay:10.37,2013-02-08 23:04:00,
2013-02-08 18:06:00,41.6,13.2,29.94,WNW,287,14.4,19.6,31,0.00,CLR,,0.33,WeatherDisplay:10.37,2013-02-08 23:06:00,
2013-02-08 18:07:00,41.6,13.9,29.94,NNW,333,10.3,19.6,32,0.00,CLR,,0.33,WeatherDisplay:10.37,2013-02-08 23:07:00,
2013-02-08 18:09:00,41.7,14.0,29.94,NNW,328,11.3,20.7,32,0.00,CLR,,0.33,WeatherDisplay:10.37,2013-02-08 23:09:00,
2013-02-08 18:11:00,41.6,15.3,29.94,NW,315,7.4,12.7,34,0.00,CLR,,0.33,WeatherDisplay:10.37,2013-02-08 23:11:00,
2013-02-08 18:12:00,41.6,15.3,29.95,NNW,329,6.6,11.5,34,0.00,CLR,,0.33,WeatherDisplay:10.37,2013-02-08 23:12:00,
2013-02-08 18:15:00,41.4,15.1,29.95,NW,308,10.2,15.0,34,0.00,CLR,,0.33,WeatherDisplay:10.37,2013-02-08 23:15:00,
2013-02-08 18:16:00,41.3,15.0,29.95,WNW,294,10.0,12.7,34,0.00,CLR,,0.33,WeatherDisplay:10.37,2013-02-08 23:16:00,
2013-02-08 18:17:00,41.3,15.0,29.95,WNW,302,9.7,15.1,34,0.00,CLR,,0.33,WeatherDisplay:10.37,2013-02-08 23:17:00,
2013-02-08 18:20:00,41.6,15.3,29.95,West,268,10.7,15.0,34,0.00,CLR,,0.33,WeatherDisplay:10.37,2013-02-08 23:20:00,
2013-02-08 18:21:00,41.4,15.1,29.95,WNW,298,10.2,16.1,34,0.00,CLR,,0.33,WeatherDisplay:10.37,2013-02-08 23:21:00,
2013-02-08 18:22:00,41.3,14.3,29.95,NW,305,12.0,17.3,33,0.00,CLR,,0.33,WeatherDisplay:10.37,2013-02-08 23:22:00,
2013-02-08 18:25:00,41.7,14.0,29.95,WNW,301,10.8,15.0,32,0.00,CLR,,0.33,WeatherDisplay:10.37,2013-02-08 23:25:00,
2013-02-08 18:26:00,41.6,13.9,29.95,NNW,328,11.4,16.1,32,0.00,CLR,,0.33,WeatherDisplay:10.37,2013-02-08 23:26:00,
2013-02-08 18:27:00,41.7,14.0,29.95,WNW,291,10.8,17.3,32,0.00,CLR,,0.33,WeatherDisplay:10.37,2013-02-08 23:27:00,
2013-02-08 18:30:00,41.3,13.6,29.95,West,280,10.1,19.6,32,0.00,CLR,,0.33,WeatherDisplay:10.37,2013-02-08 23:30:00,
2013-02-08 18:31:00,41.7,14.0,29.95,NW,309,11.1,15.0,32,0.00,CLR,,0.33,WeatherDisplay:10.37,2013-02-08 23:31:00,
2013-02-08 18:32:00,41.8,13.3,29.95,WNW,294,11.3,17.3,31,0.00,CLR,,0.33,WeatherDisplay:10.37,2013-02-08 23:32:00,
2013-02-08 18:33:00,41.3,12.9,29.95,NW,326,12.2,17.3,31,0.00,CLR,,0.33,WeatherDisplay:10.37,2013-02-08 23:33:00,
2013-02-08 18:35:00,41.6,13.9,29.95,West,270,8.2,13.8,32,0.00,CLR,,0.33,WeatherDisplay:10.37,2013-02-08 23:35:00,
2013-02-08 18:36:00,41.5,13.8,29.95,West,260,10.4,12.7,32,0.00,CLR,,0.33,WeatherDisplay:10.37,2013-02-08 23:36:00,
2013-02-08 18:37:00,41.6,13.9,29.96,WNW,302,10.2,15.0,32,0.00,CLR,,0.33,WeatherDisplay:10.37,2013-02-08 23:37:00,
2013-02-08 18:38:00,41.5,13.8,29.96,NW,308,10.5,15.0,32,0.00,CLR,,0.33,WeatherDisplay:10.37,2013-02-08 23:38:00,
2013-02-08 18:40:00,41.2,14.2,29.96,NW,319,6.9,11.5,33,0.00,CLR,,0.33,WeatherDisplay:10.37,2013-02-08 23:40:00,
2013-02-08 18:41:00,41.1,14.1,29.96,NW,316,8.0,10.4,33,0.00,CLR,,0.33,WeatherDisplay:10.37,2013-02-08 23:41:00,
2013-02-08 18:43:00,41.3,14.3,29.96,NW,325,6.4,12.7,33,0.00,CLR,,0.33,WeatherDisplay:10.37,2013-02-08 23:43:00,
2013-02-08 18:45:00,41.3,13.6,29.96,West,272,7.5,12.7,32,0.00,CLR,,0.33,WeatherDisplay:10.37,2013-02-08 23:45:00,
2013-02-08 18:46:00,41.3,14.3,29.96,WNW,291,7.6,9.2,33,0.00,CLR,,0.33,WeatherDisplay:10.37,2013-02-08 23:46:00,
2013-02-08 18:48:00,41.1,14.1,29.96,West,275,9.0,13.8,33,0.00,CLR,,0.33,WeatherDisplay:10.37,2013-02-08 23:48:00,
2013-02-08 18:50:00,41.2,13.5,29.96,WNW,301,8.7,12.7,32,0.00,CLR,,0.33,WeatherDisplay:10.37,2013-02-08 23:50:00,
2013-02-08 18:52:00,41.0,13.4,29.97,WNW,292,6.4,10.4,32,0.00,CLR,,0.33,WeatherDisplay:10.37,2013-02-08 23:52:00,
2013-02-08 18:53:00,41.4,14.4,29.97,WNW,301,6.1,12.7,33,0.00,CLR,,0.33,WeatherDisplay:10.37,2013-02-08 23:53:00,
2013-02-08 18:56:00,41.4,13.7,29.97,NNW,330,5.7,10.4,32,0.00,CLR,,0.33,WeatherDisplay:10.37,2013-02-08 23:56:00,
2013-02-08 18:57:00,41.2,14.2,29.97,NW,326,5.5,11.7,33,0.00,CLR,,0.33,WeatherDisplay:10.37,2013-02-08 23:57:00,
2013-02-08 18:58:00,40.8,12.5,29.97,WNW,292,9.6,11.5,31,0.00,CLR,,0.33,WeatherDisplay:10.37,2013-02-08 23:58:00,
2013-02-08 18:59:00,41.0,13.4,29.97,NW,315,11.2,16.1,32,0.00,CLR,,0.33,WeatherDisplay:10.37,2013-02-08 23:59:00,
2013-02-08 19:01:00,41.3,12.9,29.97,NW,311,9.4,12.7,31,0.00,CLR,,0.33,WeatherDisplay:10.37,2013-02-09 00:01:00,
2013-02-08 19:02:00,40.9,12.5,29.97,NW,319,10.3,16.1,31,0.00,CLR,,0.33,WeatherDisplay:10.37,2013-02-09 00:02:00,
2013-02-08 19:03:00,41.0,13.4,29.97,NW,319,8.1,15.0,32,0.00,CLR,,0.33,WeatherDisplay:10.37,2013-02-09 00:03:00,
2013-02-08 19:04:00,41.0,14.1,29.97,WNW,287,8.8,12.7,33,0.00,CLR,,0.33,WeatherDisplay:10.37,2013-02-09 00:04:00,
2013-02-08 19:06:00,40.9,13.3,29.97,NNW,329,11.5,16.1,32,0.00,CLR,,0.33,WeatherDisplay:10.37,2013-02-09 00:06:00,
2013-02-08 19:07:00,41.3,13.6,29.97,West,274,10.4,15.9,32,0.00,CLR,,0.33,WeatherDisplay:10.37,2013-02-09 00:07:00,
2013-02-08 19:08:00,41.1,13.4,29.97,NW,306,11.6,16.1,32,0.00,CLR,,0.33,WeatherDisplay:10.37,2013-02-09 00:08:00,
2013-02-08 19:09:00,41.0,13.4,29.97,WSW,251,9.3,17.3,32,0.00,CLR,,0.33,WeatherDisplay:10.37,2013-02-09 00:09:00,
2013-02-08 19:11:00,41.0,13.4,29.98,NW,323,9.1,13.8,32,0.00,CLR,,0.33,WeatherDisplay:10.37,2013-02-09 00:11:00,
2013-02-08 19:12:00,40.9,13.3,29.98,WNW,298,9.7,11.5,32,0.00,CLR,,0.33,WeatherDisplay:10.37,2013-02-09 00:12:00,
2013-02-08 19:13:00,41.1,13.4,29.98,NW,306,8.6,13.8,32,0.00,CLR,,0.33,WeatherDisplay:10.37,2013-02-09 00:13:00,
2013-02-08 19:14:00,41.4,13.0,29.98,West,261,11.6,16.1,31,0.00,CLR,,0.33,WeatherDisplay:10.37,2013-02-09 00:14:00,
2013-02-08 19:16:00,40.9,12.5,29.98,WSW,239,8.6,12.7,31,0.00,CLR,,0.33,WeatherDisplay:10.37,2013-02-09 00:16:00,
2013-02-08 19:18:00,40.8,13.2,29.98,NNW,335,7.9,18.4,32,0.00,CLR,,0.33,WeatherDisplay:10.37,2013-02-09 00:18:00,
2013-02-08 19:20:00,41.1,12.7,29.98,West,277,11.8,17.3,31,0.00,CLR,,0.33,WeatherDisplay:10.37,2013-02-09 00:20:00,
2013-02-08 19:21:00,41.1,12.7,29.99,NW,315,15.2,23.0,31,0.00,CLR,,0.33,WeatherDisplay:10.37,2013-02-09 00:21:00,
2013-02-08 19:23:00,41.0,11.9,29.98,WNW,294,12.0,19.6,30,0.00,CLR,,0.33,WeatherDisplay:10.37,2013-02-09 00:23:00,
2013-02-08 19:25:00,41.2,12.8,29.99,NW,323,10.1,13.8,31,0.00,CLR,,0.33,WeatherDisplay:10.37,2013-02-09 00:25:00,
2013-02-08 19:26:00,40.7,12.4,29.99,NW,308,9.8,17.3,31,0.00,CLR,,0.33,WeatherDisplay:10.37,2013-02-09 00:26:00,
2013-02-08 19:28:00,40.9,13.3,29.99,NNW,346,8.8,13.8,32,0.00,CLR,,0.33,WeatherDisplay:10.37,2013-02-09 00:28:00,
2013-02-08 19:29:00,40.7,13.1,29.99,NNW,330,8.2,13.8,32,0.00,CLR,,0.33,WeatherDisplay:10.37,2013-02-09 00:29:00,
2013-02-08 19:31:00,40.7,13.1,29.99,WNW,296,5.5,12.7,32,0.00,CLR,,0.33,WeatherDisplay:10.37,2013-02-09 00:31:00,
2013-02-08 19:33:00,40.5,13.6,29.99,NNW,342,7.2,12.7,33,0.00,CLR,,0.33,WeatherDisplay:10.37,2013-02-09 00:33:00,
2013-02-08 19:34:00,40.6,13.7,29.99,WNW,299,7.1,10.6,33,0.00,CLR,,0.33,WeatherDisplay:10.37,2013-02-09 00:34:00,
2013-02-08 19:36:00,40.8,13.2,29.99,NNW,329,7.8,10.6,32,0.00,CLR,,0.33,WeatherDisplay:10.37,2013-02-09 00:36:00,
2013-02-08 19:38:00,40.8,13.2,29.99,NNW,343,10.3,18.4,32,0.00,CLR,,0.33,WeatherDisplay:10.37,2013-02-09 00:38:00,
2013-02-08 19:39:00,40.7,12.4,29.99,NNW,344,11.6,16.1,31,0.00,CLR,,0.33,WeatherDisplay:10.37,2013-02-09 00:39:00,
2013-02-08 19:40:00,40.4,11.4,30.00,NW,322,13.0,16.1,30,0.00,CLR,,0.33,WeatherDisplay:10.37,2013-02-09 00:40:00,
2013-02-08 19:41:00,40.8,12.5,30.00,West,275,7.3,19.6,31,0.00,CLR,,0.33,WeatherDisplay:10.37,2013-02-09 00:41:00,
2013-02-08 19:43:00,40.6,11.5,30.00,NW,309,13.7,23.0,30,0.00,CLR,,0.33,WeatherDisplay:10.37,2013-02-09 00:43:00,
2013-02-08 19:44:00,40.8,11.7,30.00,North,354,11.2,17.3,30,0.00,CLR,,0.33,WeatherDisplay:10.37,2013-02-09 00:44:00,
2013-02-08 19:46:00,40.8,12.5,30.00,WNW,289,10.4,16.1,31,0.00,CLR,,0.33,WeatherDisplay:10.37,2013-02-09 00:46:00,
2013-02-08 19:47:00,40.8,11.7,30.00,West,265,12.0,17.3,30,0.00,CLR,,0.33,WeatherDisplay:10.37,2013-02-09 00:47:00,
2013-02-08 19:48:00,40.9,11.8,30.00,WNW,288,11.2,21.9,30,0.00,CLR,,0.33,WeatherDisplay:10.37,2013-02-09 00:48:00,
2013-02-08 19:49:00,40.6,10.8,30.00,NW,309,13.7,16.1,29,0.00,CLR,,0.33,WeatherDisplay:10.37,2013-02-09 00:49:00,
2013-02-08 19:51:00,40.9,11.0,30.00,North,349,14.0,20.7,29,0.00,CLR,,0.33,WeatherDisplay:10.37,2013-02-09 00:51:00,
2013-02-08 19:52:00,40.4,10.6,30.00,NNW,336,13.2,19.6,29,0.00,CLR,,0.33,WeatherDisplay:10.37,2013-02-09 00:52:00,
2013-02-08 19:53:00,40.7,10.9,30.00,NW,308,11.2,15.0,29,0.00,CLR,,0.33,WeatherDisplay:10.37,2013-02-09 00:53:00,
2013-02-08 19:54:00,40.7,10.9,30.00,NW,305,14.0,21.9,29,0.00,CLR,,0.33,WeatherDisplay:10.37,2013-02-09 00:54:00,
2013-02-08 19:56:00,40.7,11.6,30.00,NNW,328,10.5,17.3,30,0.00,CLR,,0.33,WeatherDisplay:10.37,2013-02-09 00:56:00,
2013-02-08 19:57:00,40.6,11.5,30.00,NW,305,14.1,18.4,30,0.00,CLR,,0.33,WeatherDisplay:10.37,2013-02-09 00:57:00,
2013-02-08 19:58:00,40.5,11.4,30.00,North,360,10.3,20.7,30,0.00,CLR,,0.33,WeatherDisplay:10.37,2013-02-09 00:58:00,
2013-02-08 20:00:00,40.6,11.5,30.00,NNW,332,14.4,17.3,30,0.00,CLR,,0.33,WeatherDisplay:10.37,2013-02-09 01:00:00,
2013-02-08 20:01:00,40.5,11.4,30.00,North,356,11.1,19.6,30,0.00,CLR,,0.33,WeatherDisplay:10.37,2013-02-09 01:01:00,
2013-02-08 20:02:00,40.3,10.5,30.00,NW,313,16.2,23.0,29,0.00,CLR,,0.33,WeatherDisplay:10.37,2013-02-09 01:02:00,
2013-02-08 20:03:00,40.6,10.0,30.00,NW,322,16.3,21.9,28,0.00,CLR,,0.33,WeatherDisplay:10.37,2013-02-09 01:03:00,
2013-02-08 20:05:00,40.5,10.7,30.00,WNW,284,8.6,15.0,29,0.00,CLR,,0.33,WeatherDisplay:10.37,2013-02-09 01:05:00,
2013-02-08 20:06:00,40.3,11.3,30.00,WNW,289,13.2,19.6,30,0.00,CLR,,0.33,WeatherDisplay:10.37,2013-02-09 01:06:00,
2013-02-08 20:07:00,40.7,11.6,30.00,NW,309,12.6,20.7,30,0.00,CLR,,0.33,WeatherDisplay:10.37,2013-02-09 01:07:00,
2013-02-08 20:08:00,40.6,10.8,30.00,North,349,10.1,16.1,29,0.00,CLR,,0.33,WeatherDisplay:10.37,2013-02-09 01:08:00,
2013-02-08 20:10:00,40.4,10.6,30.01,West,270,12.1,22.3,29,0.00,CLR,,0.33,WeatherDisplay:10.37,2013-02-09 01:10:00,
2013-02-08 20:11:00,40.7,10.9,30.00,West,268,14.0,21.9,29,0.00,CLR,,0.33,WeatherDisplay:10.37,2013-02-09 01:11:00,
2013-02-08 20:12:00,40.4,12.1,30.00,WNW,299,7.5,15.0,31,0.00,CLR,,0.33,WeatherDisplay:10.37,2013-02-09 01:12:00,
2013-02-08 20:13:00,40.4,11.4,30.01,NNW,344,9.9,17.3,30,0.00,CLR,,0.33,WeatherDisplay:10.37,2013-02-09 01:13:00,
2013-02-08 20:15:00,40.4,10.6,30.01,NNW,337,11.4,17.3,29,0.00,CLR,,0.33,WeatherDisplay:10.37,2013-02-09 01:15:00,
2013-02-08 20:16:00,40.3,10.5,30.01,NW,306,11.8,17.3,29,0.00,CLR,,0.33,WeatherDisplay:10.37,2013-02-09 01:16:00,
2013-02-08 20:17:00,40.6,11.5,30.01,NW,320,8.3,17.3,30,0.00,CLR,,0.33,WeatherDisplay:10.37,2013-02-09 01:17:00,
2013-02-08 20:19:00,39.9,11.7,30.01,WNW,301,10.7,15.0,31,0.00,CLR,,0.33,WeatherDisplay:10.37,2013-02-09 01:19:00,
2013-02-08 20:20:00,40.5,11.4,30.01,NW,306,13.6,21.7,30,0.00,CLR,,0.33,WeatherDisplay:10.37,2013-02-09 01:20:00,
2013-02-08 20:21:00,40.4,11.4,30.01,NNW,335,15.8,21.9,30,0.00,CLR,,0.33,WeatherDisplay:10.37,2013-02-09 01:21:00,
2013-02-08 20:22:00,40.5,11.4,30.01,WNW,295,9.9,20.7,30,0.00,CLR,,0.33,WeatherDisplay:10.37,2013-02-09 01:22:00,
2013-02-08 20:24:00,40.6,11.5,30.01,NW,309,11.7,17.3,30,0.00,CLR,,0.33,WeatherDisplay:10.37,2013-02-09 01:24:00,
2013-02-08 20:25:00,40.6,11.5,30.01,NW,323,11.1,18.4,30,0.00,CLR,,0.33,WeatherDisplay:10.37,2013-02-09 01:25:00,
2013-02-08 20:26:00,39.9,10.9,30.01,NNW,337,11.1,16.1,30,0.00,CLR,,0.33,WeatherDisplay:10.37,2013-02-09 01:26:00,
2013-02-08 20:27:00,40.3,12.0,30.01,NNW,333,7.4,13.8,31,0.00,CLR,,0.33,WeatherDisplay:10.37,2013-02-09 01:27:00,
2013-02-08 20:29:00,40.2,12.6,30.01,NNW,347,8.5,11.5,32,0.00,CLR,,0.33,WeatherDisplay:10.37,2013-02-09 01:29:00,
2013-02-08 20:31:00,39.8,11.6,30.01,NNW,336,12.8,17.3,31,0.00,CLR,,0.33,WeatherDisplay:10.37,2013-02-09 01:31:00,
2013-02-08 20:32:00,40.5,12.9,30.02,NNW,342,10.6,15.0,32,0.00,CLR,,0.33,WeatherDisplay:10.37,2013-02-09 01:32:00,
2013-02-08 20:34:00,40.1,12.6,30.02,WNW,285,9.2,13.8,32,0.00,CLR,,0.33,WeatherDisplay:10.37,2013-02-09 01:34:00,
2013-02-08 20:36:00,40.1,11.8,30.02,NW,316,10.7,18.4,31,0.00,CLR,,0.33,WeatherDisplay:10.37,2013-02-09 01:36:00,
2013-02-08 20:37:00,40.3,12.0,30.02,WNW,302,11.8,18.4,31,0.00,CLR,,0.33,WeatherDisplay:10.37,2013-02-09 01:37:00,
2013-02-08 20:39:00,40.2,11.9,30.02,NW,315,10.2,18.2,31,0.00,CLR,,0.33,WeatherDisplay:10.37,2013-02-09 01:39:00,
2013-02-08 20:41:00,40.1,11.1,30.02,WNW,292,13.3,18.4,30,0.00,CLR,,0.33,WeatherDisplay:10.37,2013-02-09 01:41:00,
2013-02-08 20:42:00,39.9,10.9,30.02,NNW,336,14.6,23.0,30,0.00,CLR,,0.33,WeatherDisplay:10.37,2013-02-09 01:42:00,
2013-02-08 20:44:00,40.0,11.8,30.02,West,267,9.3,13.8,31,0.00,CLR,,0.33,WeatherDisplay:10.37,2013-02-09 01:44:00,
2013-02-08 20:46:00,40.1,12.6,30.02,NNW,336,9.8,15.0,32,0.00,CLR,,0.33,WeatherDisplay:10.37,2013-02-09 01:46:00,
2013-02-08 20:47:00,39.6,12.1,30.02,North,350,11.0,16.1,32,0.00,CLR,,0.33,WeatherDisplay:10.37,2013-02-09 01:47:00,
2013-02-08 20:49:00,40.2,12.6,30.02,NNW,330,11.7,13.8,32,0.00,CLR,,0.33,WeatherDisplay:10.37,2013-02-09 01:49:00,
2013-02-08 20:51:00,39.8,12.3,30.02,NNW,340,7.8,13.8,32,0.00,CLR,,0.33,WeatherDisplay:10.37,2013-02-09 01:51:00,
2013-02-08 20:52:00,39.8,12.3,30.03,NW,304,7.0,10.4,32,0.00,CLR,,0.33,WeatherDisplay:10.37,2013-02-09 01:52:00,
2013-02-08 20:53:00,39.8,13.0,30.03,NW,325,10.9,13.8,33,0.00,CLR,,0.33,WeatherDisplay:10.37,2013-02-09 01:53:00,
2013-02-08 20:55:00,39.7,11.5,30.03,NW,326,10.8,24.2,31,0.00,CLR,,0.33,WeatherDisplay:10.37,2013-02-09 01:55:00,
2013-02-08 20:56:00,40.0,11.8,30.03,NW,325,11.2,16.1,31,0.00,CLR,,0.33,WeatherDisplay:10.37,2013-02-09 01:56:00,
2013-02-08 20:57:00,39.8,11.6,30.03,NNW,337,11.7,21.5,31,0.00,CLR,,0.33,WeatherDisplay:10.37,2013-02-09 01:57:00,
2013-02-08 20:58:00,39.8,11.6,30.03,NW,308,15.0,21.9,31,0.00,CLR,,0.33,WeatherDisplay:10.37,2013-02-09 01:58:00,
2013-02-08 21:00:00,39.7,12.9,30.03,WNW,289,11.5,19.6,33,0.00,CLR,,0.33,WeatherDisplay:10.37,2013-02-09 02:00:00,
2013-02-08 21:01:00,39.8,12.3,30.03,WNW,298,9.2,17.3,32,0.00,CLR,,0.33,WeatherDisplay:10.37,2013-02-09 02:01:00,
2013-02-08 21:02:00,39.6,12.1,30.03,NNW,330,9.7,13.8,32,0.00,CLR,,0.33,WeatherDisplay:10.37,2013-02-09 02:02:00,
2013-02-08 21:03:00,39.8,12.3,30.03,WNW,299,9.2,12.7,32,0.00,CLR,,0.33,WeatherDisplay:10.37,2013-02-09 02:03:00,
2013-02-08 21:05:00,39.5,12.7,30.04,North,352,13.9,20.7,33,0.00,CLR,,0.33,WeatherDisplay:10.37,2013-02-09 02:05:00,
2013-02-08 21:06:00,39.8,13.0,30.04,NNW,330,9.1,20.7,33,0.00,CLR,,0.33,WeatherDisplay:10.37,2013-02-09 02:06:00,
2013-02-08 21:07:00,39.5,12.0,30.04,West,267,11.8,13.8,32,0.00,CLR,,0.33,WeatherDisplay:10.37,2013-02-09 02:07:00,
2013-02-08 21:08:00,39.4,11.9,30.04,NW,325,15.4,23.0,32,0.00,CLR,,0.33,WeatherDisplay:10.37,2013-02-09 02:08:00,
2013-02-08 21:10:00,39.7,12.2,30.04,NW,304,12.1,18.4,32,0.00,CLR,,0.33,WeatherDisplay:10.37,2013-02-09 02:10:00,
2013-02-08 21:12:00,39.2,11.8,30.04,NW,323,14.2,28.8,32,0.00,CLR,,0.33,WeatherDisplay:10.37,2013-02-09 02:12:00,
2013-02-08 21:13:00,39.4,12.6,30.04,WNW,302,8.7,21.9,33,0.00,CLR,,0.33,WeatherDisplay:10.37,2013-02-09 02:13:00,
2013-02-08 21:15:00,39.6,12.8,30.05,WNW,295,9.4,15.0,33,0.00,CLR,,0.33,WeatherDisplay:10.37,2013-02-09 02:15:00,
2013-02-08 21:17:00,39.8,12.3,30.05,NNW,342,10.8,17.3,32,0.00,CLR,,0.33,WeatherDisplay:10.37,2013-02-09 02:17:00,
2013-02-08 21:18:00,39.2,11.8,30.05,NNW,347,9.7,17.3,32,0.00,CLR,,0.33,WeatherDisplay:10.37,2013-02-09 02:18:00,
2013-02-08 21:19:00,39.3,11.9,30.05,WNW,296,9.3,17.3,32,0.00,CLR,,0.33,WeatherDisplay:10.37,2013-02-09 02:19:00,
2013-02-08 21:20:00,39.7,12.9,30.05,NNW,336,7.8,15.0,33,0.00,CLR,,0.33,WeatherDisplay:10.37,2013-02-09 02:20:00,
2013-02-08 21:22:00,39.3,12.6,30.05,North,3,8.6,11.5,33,0.00,CLR,,0.33,WeatherDisplay:10.37,2013-02-09 02:22:00,
2013-02-08 21:23:00,39.3,13.2,30.05,NNW,342,7.1,10.4,34,0.00,CLR,,0.33,WeatherDisplay:10.37,2013-02-09 02:23:00,
2013-02-08 21:24:00,38.9,12.2,30.05,NW,326,9.8,11.5,33,0.00,CLR,,0.33,WeatherDisplay:10.37,2013-02-09 02:24:00,
2013-02-08 21:26:00,39.3,13.2,30.05,NW,312,8.5,16.1,34,0.00,CLR,,0.33,WeatherDisplay:10.37,2013-02-09 02:26:00,
2013-02-08 21:27:00,38.8,12.1,30.05,WNW,292,9.8,17.3,33,0.00,CLR,,0.33,WeatherDisplay:10.37,2013-02-09 02:27:00,
2013-02-08 21:28:00,39.5,12.7,30.05,NNW,344,8.2,17.3,33,0.00,CLR,,0.33,WeatherDisplay:10.37,2013-02-09 02:28:00,
2013-02-08 21:29:00,38.9,12.2,30.05,NNW,340,9.1,12.4,33,0.00,CLR,,0.33,WeatherDisplay:10.37,2013-02-09 02:29:00,
2013-02-08 21:31:00,39.3,12.6,30.05,NNW,336,9.0,12.7,33,0.00,CLR,,0.33,WeatherDisplay:10.37,2013-02-09 02:31:00,
2013-02-08 21:32:00,38.9,12.2,30.06,WNW,288,8.2,12.2,33,0.00,CLR,,0.33,WeatherDisplay:10.37,2013-02-09 02:32:00,
2013-02-08 21:34:00,39.0,12.3,30.06,NNW,335,9.3,12.7,33,0.00,CLR,,0.33,WeatherDisplay:10.37,2013-02-09 02:34:00,
2013-02-08 21:36:00,39.0,13.0,30.06,WNW,298,10.2,13.8,34,0.00,CLR,,0.33,WeatherDisplay:10.37,2013-02-09 02:36:00,
2013-02-08 21:37:00,39.1,11.7,30.06,WNW,298,8.9,16.1,32,0.00,CLR,,0.33,WeatherDisplay:10.37,2013-02-09 02:37:00,
2013-02-08 21:39:00,39.0,12.3,30.06,NW,315,5.3,10.4,33,0.00,CLR,,0.33,WeatherDisplay:10.37,2013-02-09 02:39:00,
2013-02-08 21:41:00,38.9,12.2,30.06,NW,305,11.6,16.1,33,0.00,CLR,,0.33,WeatherDisplay:10.37,2013-02-09 02:41:00,
2013-02-08 21:42:00,39.0,12.3,30.06,WNW,299,7.2,15.0,33,0.00,CLR,,0.33,WeatherDisplay:10.37,2013-02-09 02:42:00,
2013-02-08 21:44:00,38.6,12.6,30.06,North,352,6.0,10.4,34,0.00,CLR,,0.33,WeatherDisplay:10.37,2013-02-09 02:44:00,
2013-02-08 21:46:00,38.5,11.8,30.06,West,280,10.0,13.8,33,0.00,CLR,,0.33,WeatherDisplay:10.37,2013-02-09 02:46:00,
2013-02-08 21:47:00,39.1,12.4,30.06,NNW,339,12.2,19.6,33,0.00,CLR,,0.33,WeatherDisplay:10.37,2013-02-09 02:47:00,
2013-02-08 21:49:00,38.8,12.8,30.06,NNW,342,9.7,15.0,34,0.00,CLR,,0.33,WeatherDisplay:10.37,2013-02-09 02:49:00,
2013-02-08 21:51:00,38.8,12.8,30.06,NW,312,7.4,12.9,34,0.00,CLR,,0.33,WeatherDisplay:10.37,2013-02-09 02:51:00,
2013-02-08 21:53:00,38.7,13.4,30.06,NNW,328,8.6,15.0,35,0.00,CLR,,0.33,WeatherDisplay:10.37,2013-02-09 02:53:00,
2013-02-08 21:54:00,38.2,12.3,30.06,NW,325,10.3,11.5,34,0.00,CLR,,0.33,WeatherDisplay:10.37,2013-02-09 02:54:00,
2013-02-08 21:56:00,38.6,12.6,30.06,NW,312,8.7,12.7,34,0.00,CLR,,0.33,WeatherDisplay:10.37,2013-02-09 02:56:00,
2013-02-08 21:58:00,38.6,12.6,30.06,NW,309,9.3,13.8,34,0.00,CLR,,0.33,WeatherDisplay:10.37,2013-02-09 02:58:00,
2013-02-08 21:59:00,38.8,12.1,30.06,NW,308,9.8,19.4,33,0.00,CLR,,0.33,WeatherDisplay:10.37,2013-02-09 02:59:00,
2013-02-08 22:00:00,38.1,11.5,30.06,NW,316,11.4,19.6,33,0.00,CLR,,0.33,WeatherDisplay:10.37,2013-02-09 03:00:00,
2013-02-08 22:01:00,38.6,12.6,30.07,West,274,10.1,17.3,34,0.00,CLR,,0.33,WeatherDisplay:10.37,2013-02-09 03:01:00,
2013-02-08 22:03:00,38.6,12.6,30.07,West,275,9.8,15.0,34,0.00,CLR,,0.33,WeatherDisplay:10.37,2013-02-09 03:03:00,
2013-02-08 22:05:00,38.5,12.5,30.07,WNW,285,11.8,17.3,34,0.00,CLR,,0.33,WeatherDisplay:10.37,2013-02-09 03:05:00,
2013-02-08 22:06:00,38.5,12.5,30.07,WNW,288,9.6,17.3,34,0.00,CLR,,0.33,WeatherDisplay:10.37,2013-02-09 03:06:00,
2013-02-08 22:08:00,38.1,12.2,30.07,WNW,292,12.1,20.7,34,0.00,CLR,,0.33,WeatherDisplay:10.37,2013-02-09 03:08:00,
2013-02-08 22:10:00,38.2,12.3,30.07,West,275,7.4,13.8,34,0.00,CLR,,0.33,WeatherDisplay:10.37,2013-02-09 03:10:00,
2013-02-08 22:11:00,38.0,12.7,30.07,NW,315,7.8,13.8,35,0.00,CLR,,0.33,WeatherDisplay:10.37,2013-02-09 03:11:00,
2013-02-08 22:13:00,38.4,12.4,30.07,NNW,344,10.5,17.3,34,0.00,CLR,,0.33,WeatherDisplay:10.37,2013-02-09 03:13:00,
2013-02-08 22:15:00,38.1,12.2,30.07,NW,305,11.0,17.3,34,0.00,CLR,,0.33,WeatherDisplay:10.37,2013-02-09 03:15:00,
2013-02-08 22:16:00,38.1,12.2,30.07,West,277,9.8,15.0,34,0.00,CLR,,0.33,WeatherDisplay:10.37,2013-02-09 03:16:00,
2013-02-08 22:19:00,38.0,12.7,30.07,NW,305,10.9,19.6,35,0.00,CLR,,0.33,WeatherDisplay:10.37,2013-02-09 03:19:00,
2013-02-08 22:20:00,38.1,12.2,30.07,NW,326,14.4,21.9,34,0.00,CLR,,0.33,WeatherDisplay:10.37,2013-02-09 03:20:00,
2013-02-08 22:21:00,37.8,11.9,30.07,NW,319,11.7,21.9,34,0.00,CLR,,0.33,WeatherDisplay:10.37,2013-02-09 03:21:00,
2013-02-08 22:22:00,37.7,11.8,30.07,NNW,328,9.6,17.3,34,0.00,CLR,,0.33,WeatherDisplay:10.37,2013-02-09 03:22:00,
2013-02-08 22:24:00,37.5,11.6,30.07,NW,323,11.3,18.4,34,0.00,CLR,,0.33,WeatherDisplay:10.37,2013-02-09 03:24:00,
2013-02-08 22:25:00,37.6,11.7,30.07,WNW,291,10.8,13.8,34,0.00,CLR,,0.33,WeatherDisplay:10.37,2013-02-09 03:25:00,
2013-02-08 22:26:00,37.9,12.6,30.07,NW,311,10.3,19.6,35,0.00,CLR,,0.33,WeatherDisplay:10.37,2013-02-09 03:26:00,
2013-02-08 22:27:00,37.3,12.1,30.07,NW,304,10.8,19.6,35,0.00,CLR,,0.33,WeatherDisplay:10.37,2013-02-09 03:27:00,
2013-02-08 22:29:00,37.5,11.0,30.07,WNW,291,13.1,18.4,33,0.00,CLR,,0.33,WeatherDisplay:10.37,2013-02-09 03:29:00,
2013-02-08 22:30:00,37.6,11.7,30.07,NW,322,10.1,18.4,34,0.00,CLR,,0.33,WeatherDisplay:10.37,2013-02-09 03:30:00,
2013-02-08 22:31:00,37.4,11.5,30.08,WNW,289,10.1,15.0,34,0.00,CLR,,0.33,WeatherDisplay:10.37,2013-02-09 03:31:00,
2013-02-08 22:32:00,37.6,11.0,30.08,NNW,328,15.3,23.0,33,0.00,CLR,,0.33,WeatherDisplay:10.37,2013-02-09 03:32:00,
2013-02-08 22:34:00,37.2,10.7,30.08,West,268,12.4,23.0,33,0.00,CLR,,0.33,WeatherDisplay:10.37,2013-02-09 03:34:00,
2013-02-08 22:35:00,37.1,10.6,30.08,NW,306,14.2,20.7,33,0.00,CLR,,0.33,WeatherDisplay:10.37,2013-02-09 03:35:00,
2013-02-08 22:36:00,37.0,10.5,30.08,NNW,344,14.6,20.7,33,0.00,CLR,,0.33,WeatherDisplay:10.37,2013-02-09 03:36:00,
2013-02-08 22:37:00,36.9,9.7,30.08,WNW,301,12.1,19.2,32,0.00,CLR,,0.33,WeatherDisplay:10.37,2013-02-09 03:37:00,
2013-02-08 22:40:00,37.0,11.2,30.07,NW,313,9.1,16.7,34,0.00,CLR,,0.33,WeatherDisplay:10.37,2013-02-09 03:40:00,
2013-02-08 22:42:00,37.4,10.2,30.08,NW,316,15.6,26.0,32,0.00,CLR,,0.33,WeatherDisplay:10.37,2013-02-09 03:42:00,
2013-02-08 22:45:00,37.4,10.9,30.08,NNW,347,11.7,23.0,33,0.00,CLR,,0.33,WeatherDisplay:10.37,2013-02-09 03:45:00,
2013-02-08 22:47:00,36.7,9.6,30.08,NW,305,9.4,13.8,32,0.00,CLR,,0.33,WeatherDisplay:10.37,2013-02-09 03:47:00,
2013-02-08 22:50:00,37.2,10.7,30.08,NNW,332,11.1,21.8,33,0.00,CLR,,0.33,WeatherDisplay:10.37,2013-02-09 03:50:00,
2013-02-08 22:52:00,37.3,11.5,30.08,NW,309,10.3,17.3,34,0.00,CLR,,0.33,WeatherDisplay:10.37,2013-02-09 03:52:00,
2013-02-08 22:55:00,37.1,11.3,30.08,WNW,296,10.3,15.0,34,0.00,CLR,,0.33,WeatherDisplay:10.37,2013-02-09 03:55:00,
2013-02-08 22:57:00,37.3,11.5,30.08,NW,326,9.5,17.3,34,0.00,CLR,,0.33,WeatherDisplay:10.37,2013-02-09 03:57:00,
2013-02-08 23:00:00,37.0,11.2,30.08,NW,312,6.2,11.5,34,0.00,CLR,,0.33,WeatherDisplay:10.37,2013-02-09 04:00:00,
2013-02-08 23:02:00,37.4,11.5,30.08,SW,232,6.5,17.3,34,0.00,CLR,,0.33,WeatherDisplay:10.37,2013-02-09 04:02:00,
2013-02-08 23:05:00,37.2,11.4,30.08,WNW,302,6.8,13.8,34,0.00,CLR,,0.33,WeatherDisplay:10.37,2013-02-09 04:05:00,
2013-02-08 23:06:00,36.8,11.0,30.08,North,352,7.2,13.8,34,0.00,CLR,,0.33,WeatherDisplay:10.37,2013-02-09 04:06:00,
2013-02-08 23:07:00,37.3,11.5,30.08,NNW,329,10.6,15.0,34,0.00,CLR,,0.33,WeatherDisplay:10.37,2013-02-09 04:07:00,
2013-02-08 23:10:00,36.9,11.1,30.08,West,275,10.8,16.1,34,0.00,CLR,,0.33,WeatherDisplay:10.37,2013-02-09 04:10:00,
2013-02-08 23:11:00,36.9,11.1,30.08,West,263,10.9,16.1,34,0.00,CLR,,0.33,WeatherDisplay:10.37,2013-02-09 04:11:00,
2013-02-08 23:12:00,36.8,10.3,30.08,NNW,332,8.0,18.4,33,0.00,CLR,,0.33,WeatherDisplay:10.37,2013-02-09 04:12:00,
2013-02-08 23:16:00,36.8,10.3,30.08,NW,323,11.1,18.1,33,0.00,CLR,,0.33,WeatherDisplay:10.37,2013-02-09 04:16:00,
2013-02-08 23:17:00,37.2,11.4,30.08,NNW,342,8.8,16.1,34,0.00,CLR,,0.33,WeatherDisplay:10.37,2013-02-09 04:17:00,
2013-02-08 23:18:00,37.0,11.2,30.08,NW,304,9.1,16.1,34,0.00,CLR,,0.33,WeatherDisplay:10.37,2013-02-09 04:18:00,
2013-02-08 23:21:00,36.9,11.1,30.08,NW,319,9.0,13.8,34,0.00,CLR,,0.33,WeatherDisplay:10.37,2013-02-09 04:21:00,
2013-02-08 23:22:00,36.5,10.7,30.07,WNW,302,7.8,12.7,34,0.00,CLR,,0.33,WeatherDisplay:10.37,2013-02-09 04:22:00,
2013-02-08 23:23:00,36.9,11.8,30.07,WNW,295,7.2,13.8,35,0.00,CLR,,0.33,WeatherDisplay:10.37,2013-02-09 04:23:00,
2013-02-08 23:26:00,36.7,10.9,30.07,NW,306,7.6,15.3,34,0.00,CLR,,0.33,WeatherDisplay:10.37,2013-02-09 04:26:00,
2013-02-08 23:28:00,35.0,10.1,30.07,WNW,289,8.5,15.0,35,0.00,CLR,,0.33,WeatherDisplay:10.37,2013-02-09 04:28:00,
2013-02-08 23:31:00,36.4,11.3,30.07,WNW,298,7.9,16.1,35,0.00,CLR,,0.33,WeatherDisplay:10.37,2013-02-09 04:31:00,
2013-02-08 23:33:00,34.8,9.9,30.07,NW,305,9.4,17.3,35,0.00,CLR,,0.33,WeatherDisplay:10.37,2013-02-09 04:33:00,
2013-02-08 23:36:00,36.9,11.1,30.07,NW,316,10.4,13.8,34,0.00,CLR,,0.33,WeatherDisplay:10.37,2013-02-09 04:36:00,
2013-02-08 23:37:00,36.6,11.5,30.07,WNW,289,8.7,18.4,35,0.00,CLR,,0.33,WeatherDisplay:10.37,2013-02-09 04:37:00,
2013-02-08 23:38:00,36.6,11.5,30.07,NW,308,7.7,10.0,35,0.00,CLR,,0.33,WeatherDisplay:10.37,2013-02-09 04:38:00,
2013-02-08 23:41:00,36.6,10.8,30.08,NNW,336,12.1,17.3,34,0.00,CLR,,0.33,WeatherDisplay:10.37,2013-02-09 04:41:00,
2013-02-08 23:42:00,36.5,11.4,30.08,NW,306,11.5,18.4,35,0.00,CLR,,0.33,WeatherDisplay:10.37,2013-02-09 04:42:00,
2013-02-08 23:43:00,37.0,11.2,30.08,WNW,289,9.7,16.3,34,0.00,CLR,,0.33,WeatherDisplay:10.37,2013-02-09 04:43:00,
2013-02-08 23:46:00,36.6,11.5,30.08,NW,306,8.5,16.1,35,0.00,CLR,,0.33,WeatherDisplay:10.37,2013-02-09 04:46:00,
2013-02-08 23:47:00,36.2,11.1,30.08,NNW,328,7.2,13.8,35,0.00,CLR,,0.33,WeatherDisplay:10.37,2013-02-09 04:47:00,
2013-02-08 23:48:00,36.3,11.2,30.08,West,277,8.8,11.5,35,0.00,CLR,,0.33,WeatherDisplay:10.37,2013-02-09 04:48:00,
2013-02-08 23:51:00,36.8,11.7,30.07,NW,304,11.1,15.2,35,0.00,CLR,,0.33,WeatherDisplay:10.37,2013-02-09 04:51:00,
2013-02-08 23:52:00,36.1,11.0,30.07,WNW,292,11.5,18.4,35,0.00,CLR,,0.33,WeatherDisplay:10.37,2013-02-09 04:52:00,
2013-02-08 23:53:00,36.3,10.6,30.07,WNW,287,11.1,16.1,34,0.00,CLR,,0.33,WeatherDisplay:10.37,2013-02-09 04:53:00,
2013-02-08 23:56:00,35.3,11.0,30.08,NNW,328,9.3,18.4,36,0.00,CLR,,0.33,WeatherDisplay:10.37,2013-02-09 04:56:00,
2013-02-08 23:57:00,35.5,10.5,30.07,WNW,284,11.9,16.1,35,0.00,CLR,,0.33,WeatherDisplay:10.37,2013-02-09 04:57:00,
2013-02-08 23:58:00,36.2,11.1,30.07,NW,320,7.6,23.0,35,0.00,CLR,,0.33,WeatherDisplay:10.37,2013-02-09 04:58:00,